<?xml version="1.0" encoding="UTF-8" standalone="no" ?>
 
<gpx xmlns="http://www.topografix.com/GPX/1/1" creator="bikehike.co.uk" version="1.1" 
    xmlns:xsi="http://www.w3.org/2001/XMLSchema-instance" 
    xsi:schemaLocation="http://www.topografix.com/GPX/1/1 http://www.topografix.com/GPX/1/1/gpx.xsd">


  <trk>
    <name>Grosseto-Montal</name>
    <trkseg>
      <trkpt lat="42.714012" lon="11.008568">
       <ele>9.63</ele>
       <time>2014-11-04T17:59:57Z</time>
      </trkpt>
      <trkpt lat="42.713996" lon="11.008628">
       <ele>9.56</ele>
       <time>2014-11-04T17:59:57Z</time>
      </trkpt>
      <trkpt lat="42.714038" lon="11.008684">
       <ele>9.24</ele>
       <time>2014-11-04T17:59:59Z</time>
      </trkpt>
      <trkpt lat="42.716300" lon="11.004576">
       <ele>9.71</ele>
       <time>2014-11-04T18:01:17Z</time>
      </trkpt>
      <trkpt lat="42.718437" lon="11.000793">
       <ele>7.57</ele>
       <time>2014-11-04T18:02:30Z</time>
      </trkpt>
      <trkpt lat="42.718627" lon="11.000529">
       <ele>7.69</ele>
       <time>2014-11-04T18:02:35Z</time>
      </trkpt>
      <trkpt lat="42.718822" lon="11.000308">
       <ele>7.59</ele>
       <time>2014-11-04T18:02:40Z</time>
      </trkpt>
      <trkpt lat="42.719039" lon="11.000117">
       <ele>7.2</ele>
       <time>2014-11-04T18:02:46Z</time>
      </trkpt>
      <trkpt lat="42.721488" lon="10.998327">
       <ele>7.44</ele>
       <time>2014-11-04T18:03:43Z</time>
      </trkpt>
      <trkpt lat="42.722511" lon="10.997473">
       <ele>6.02</ele>
       <time>2014-11-04T18:04:08Z</time>
      </trkpt>
      <trkpt lat="42.722599" lon="10.997431">
       <ele>5.81</ele>
       <time>2014-11-04T18:04:10Z</time>
      </trkpt>
      <trkpt lat="42.722713" lon="10.997411">
       <ele>5.45</ele>
       <time>2014-11-04T18:04:13Z</time>
      </trkpt>
      <trkpt lat="42.722805" lon="10.997429">
       <ele>5.07</ele>
       <time>2014-11-04T18:04:15Z</time>
      </trkpt>
      <trkpt lat="42.722885" lon="10.997480">
       <ele>4.66</ele>
       <time>2014-11-04T18:04:16Z</time>
      </trkpt>
      <trkpt lat="42.723648" lon="10.998805">
       <ele>1.79</ele>
       <time>2014-11-04T18:04:42Z</time>
      </trkpt>
      <trkpt lat="42.723728" lon="10.998784">
       <ele>1.74</ele>
       <time>2014-11-04T18:04:44Z</time>
      </trkpt>
      <trkpt lat="42.724697" lon="11.000547">
       <ele>1.54</ele>
       <time>2014-11-04T18:05:17Z</time>
      </trkpt>
      <trkpt lat="42.726154" lon="11.003129">
       <ele>1.92</ele>
       <time>2014-11-04T18:06:07Z</time>
      </trkpt>
      <trkpt lat="42.726264" lon="11.003475">
       <ele>1.95</ele>
       <time>2014-11-04T18:06:13Z</time>
      </trkpt>
      <trkpt lat="42.726299" lon="11.003686">
       <ele>1.88</ele>
       <time>2014-11-04T18:06:16Z</time>
      </trkpt>
      <trkpt lat="42.726322" lon="11.004591">
       <ele>1.08</ele>
       <time>2014-11-04T18:06:30Z</time>
      </trkpt>
      <trkpt lat="42.726303" lon="11.010890">
       <ele>1</ele>
       <time>2014-11-04T18:08:06Z</time>
      </trkpt>
      <trkpt lat="42.726314" lon="11.013606">
       <ele>1.72</ele>
       <time>2014-11-04T18:08:47Z</time>
      </trkpt>
      <trkpt lat="42.726215" lon="11.014027">
       <ele>1.91</ele>
       <time>2014-11-04T18:08:54Z</time>
      </trkpt>
      <trkpt lat="42.726196" lon="11.014251">
       <ele>2.04</ele>
       <time>2014-11-04T18:08:57Z</time>
      </trkpt>
      <trkpt lat="42.726058" lon="11.014834">
       <ele>2.22</ele>
       <time>2014-11-04T18:09:07Z</time>
      </trkpt>
      <trkpt lat="42.726047" lon="11.014931">
       <ele>2.24</ele>
       <time>2014-11-04T18:09:08Z</time>
      </trkpt>
      <trkpt lat="42.726058" lon="11.015034">
       <ele>2.23</ele>
       <time>2014-11-04T18:09:10Z</time>
      </trkpt>
      <trkpt lat="42.726135" lon="11.015280">
       <ele>2.03</ele>
       <time>2014-11-04T18:09:14Z</time>
      </trkpt>
      <trkpt lat="42.726276" lon="11.015575">
       <ele>1.84</ele>
       <time>2014-11-04T18:09:19Z</time>
      </trkpt>
      <trkpt lat="42.726318" lon="11.015762">
       <ele>1.67</ele>
       <time>2014-11-04T18:09:22Z</time>
      </trkpt>
      <trkpt lat="42.726280" lon="11.016082">
       <ele>1.67</ele>
       <time>2014-11-04T18:09:27Z</time>
      </trkpt>
      <trkpt lat="42.726474" lon="11.016535">
       <ele>1.96</ele>
       <time>2014-11-04T18:09:35Z</time>
      </trkpt>
      <trkpt lat="42.727283" lon="11.019096">
       <ele>1.08</ele>
       <time>2014-11-04T18:10:17Z</time>
      </trkpt>
      <trkpt lat="42.733367" lon="11.040122">
       <ele>1.98</ele>
       <time>2014-11-04T18:16:02Z</time>
      </trkpt>
      <trkpt lat="42.733585" lon="11.040925">
       <ele>2.57</ele>
       <time>2014-11-04T18:16:15Z</time>
      </trkpt>
      <trkpt lat="42.734691" lon="11.044762">
       <ele>1.71</ele>
       <time>2014-11-04T18:17:17Z</time>
      </trkpt>
      <trkpt lat="42.736724" lon="11.051259">
       <ele>1.65</ele>
       <time>2014-11-04T18:19:05Z</time>
      </trkpt>
      <trkpt lat="42.737247" lon="11.052816">
       <ele>3.19</ele>
       <time>2014-11-04T18:19:31Z</time>
      </trkpt>
      <trkpt lat="42.738059" lon="11.055084">
       <ele>3.86</ele>
       <time>2014-11-04T18:20:09Z</time>
      </trkpt>
      <trkpt lat="42.738220" lon="11.055412">
       <ele>3.14</ele>
       <time>2014-11-04T18:20:15Z</time>
      </trkpt>
      <trkpt lat="42.738414" lon="11.055625">
       <ele>2.62</ele>
       <time>2014-11-04T18:20:21Z</time>
      </trkpt>
      <trkpt lat="42.738681" lon="11.055700">
       <ele>2.96</ele>
       <time>2014-11-04T18:20:26Z</time>
      </trkpt>
      <trkpt lat="42.742591" lon="11.055600">
       <ele>0.11</ele>
       <time>2014-11-04T18:21:47Z</time>
      </trkpt>
      <trkpt lat="42.742679" lon="11.055624">
       <ele>0.22</ele>
       <time>2014-11-04T18:21:49Z</time>
      </trkpt>
      <trkpt lat="42.742702" lon="11.055688">
       <ele>0.24</ele>
       <time>2014-11-04T18:21:50Z</time>
      </trkpt>
      <trkpt lat="42.742698" lon="11.056052">
       <ele>0.7</ele>
       <time>2014-11-04T18:21:56Z</time>
      </trkpt>
      <trkpt lat="42.742713" lon="11.056146">
       <ele>0.91</ele>
       <time>2014-11-04T18:21:57Z</time>
      </trkpt>
      <trkpt lat="42.742668" lon="11.057997">
       <ele>2.6</ele>
       <time>2014-11-04T18:22:26Z</time>
      </trkpt>
      <trkpt lat="42.742603" lon="11.059097">
       <ele>3.8</ele>
       <time>2014-11-04T18:22:42Z</time>
      </trkpt>
      <trkpt lat="42.742576" lon="11.059987">
       <ele>4.89</ele>
       <time>2014-11-04T18:22:56Z</time>
      </trkpt>
      <trkpt lat="42.742538" lon="11.060071">
       <ele>4.87</ele>
       <time>2014-11-04T18:22:57Z</time>
      </trkpt>
      <trkpt lat="42.742462" lon="11.060148">
       <ele>4.75</ele>
       <time>2014-11-04T18:22:59Z</time>
      </trkpt>
      <trkpt lat="42.742362" lon="11.060164">
       <ele>4.54</ele>
       <time>2014-11-04T18:23:01Z</time>
      </trkpt>
      <trkpt lat="42.741737" lon="11.060090">
       <ele>3.26</ele>
       <time>2014-11-04T18:23:14Z</time>
      </trkpt>
      <trkpt lat="42.741664" lon="11.060112">
       <ele>3.13</ele>
       <time>2014-11-04T18:23:16Z</time>
      </trkpt>
      <trkpt lat="42.741603" lon="11.060169">
       <ele>3.11</ele>
       <time>2014-11-04T18:23:18Z</time>
      </trkpt>
      <trkpt lat="42.741550" lon="11.060321">
       <ele>3.19</ele>
       <time>2014-11-04T18:23:20Z</time>
      </trkpt>
      <trkpt lat="42.741546" lon="11.061097">
       <ele>3.76</ele>
       <time>2014-11-04T18:23:32Z</time>
      </trkpt>
      <trkpt lat="42.741584" lon="11.061303">
       <ele>3.86</ele>
       <time>2014-11-04T18:23:35Z</time>
      </trkpt>
      <trkpt lat="42.741676" lon="11.061536">
       <ele>4.01</ele>
       <time>2014-11-04T18:23:39Z</time>
      </trkpt>
      <trkpt lat="42.742248" lon="11.062565">
       <ele>3.6</ele>
       <time>2014-11-04T18:23:59Z</time>
      </trkpt>
      <trkpt lat="42.742458" lon="11.062988">
       <ele>3.33</ele>
       <time>2014-11-04T18:24:07Z</time>
      </trkpt>
      <trkpt lat="42.742633" lon="11.063446">
       <ele>3.53</ele>
       <time>2014-11-04T18:24:14Z</time>
      </trkpt>
      <trkpt lat="42.742881" lon="11.064213">
       <ele>4.46</ele>
       <time>2014-11-04T18:24:27Z</time>
      </trkpt>
      <trkpt lat="42.743404" lon="11.065981">
       <ele>3.09</ele>
       <time>2014-11-04T18:24:56Z</time>
      </trkpt>
      <trkpt lat="42.744010" lon="11.067940">
       <ele>3.43</ele>
       <time>2014-11-04T18:25:29Z</time>
      </trkpt>
      <trkpt lat="42.745517" lon="11.073107">
       <ele>3.48</ele>
       <time>2014-11-04T18:26:53Z</time>
      </trkpt>
      <trkpt lat="42.746173" lon="11.074954">
       <ele>3.02</ele>
       <time>2014-11-04T18:27:25Z</time>
      </trkpt>
      <trkpt lat="42.746402" lon="11.075486">
       <ele>2.6</ele>
       <time>2014-11-04T18:27:34Z</time>
      </trkpt>
      <trkpt lat="42.746417" lon="11.075601">
       <ele>2.49</ele>
       <time>2014-11-04T18:27:36Z</time>
      </trkpt>
      <trkpt lat="42.746356" lon="11.075861">
       <ele>2.37</ele>
       <time>2014-11-04T18:27:40Z</time>
      </trkpt>
      <trkpt lat="42.746265" lon="11.075949">
       <ele>2.48</ele>
       <time>2014-11-04T18:27:42Z</time>
      </trkpt>
      <trkpt lat="42.746204" lon="11.076057">
       <ele>2.55</ele>
       <time>2014-11-04T18:27:44Z</time>
      </trkpt>
      <trkpt lat="42.746177" lon="11.076218">
       <ele>2.59</ele>
       <time>2014-11-04T18:27:47Z</time>
      </trkpt>
      <trkpt lat="42.746208" lon="11.076415">
       <ele>2.55</ele>
       <time>2014-11-04T18:27:50Z</time>
      </trkpt>
      <trkpt lat="42.746665" lon="11.078121">
       <ele>2.74</ele>
       <time>2014-11-04T18:28:17Z</time>
      </trkpt>
      <trkpt lat="42.747413" lon="11.080752">
       <ele>4</ele>
       <time>2014-11-04T18:29:00Z</time>
      </trkpt>
      <trkpt lat="42.748264" lon="11.083846">
       <ele>4.92</ele>
       <time>2014-11-04T18:29:51Z</time>
      </trkpt>
      <trkpt lat="42.748336" lon="11.083966">
       <ele>5</ele>
       <time>2014-11-04T18:29:53Z</time>
      </trkpt>
      <trkpt lat="42.748416" lon="11.084028">
       <ele>4.92</ele>
       <time>2014-11-04T18:29:55Z</time>
      </trkpt>
      <trkpt lat="42.748706" lon="11.084117">
       <ele>4.58</ele>
       <time>2014-11-04T18:30:01Z</time>
      </trkpt>
      <trkpt lat="42.748821" lon="11.084218">
       <ele>4.44</ele>
       <time>2014-11-04T18:30:04Z</time>
      </trkpt>
      <trkpt lat="42.748870" lon="11.084347">
       <ele>4.43</ele>
       <time>2014-11-04T18:30:06Z</time>
      </trkpt>
      <trkpt lat="42.748851" lon="11.084548">
       <ele>4.55</ele>
       <time>2014-11-04T18:30:09Z</time>
      </trkpt>
      <trkpt lat="42.748783" lon="11.084724">
       <ele>4.77</ele>
       <time>2014-11-04T18:30:12Z</time>
      </trkpt>
      <trkpt lat="42.748649" lon="11.084916">
       <ele>5.18</ele>
       <time>2014-11-04T18:30:16Z</time>
      </trkpt>
      <trkpt lat="42.748622" lon="11.085053">
       <ele>5.22</ele>
       <time>2014-11-04T18:30:19Z</time>
      </trkpt>
      <trkpt lat="42.748638" lon="11.085251">
       <ele>4.89</ele>
       <time>2014-11-04T18:30:22Z</time>
      </trkpt>
      <trkpt lat="42.748775" lon="11.085679">
       <ele>4.17</ele>
       <time>2014-11-04T18:30:29Z</time>
      </trkpt>
      <trkpt lat="42.749607" lon="11.088872">
       <ele>1.83</ele>
       <time>2014-11-04T18:31:20Z</time>
      </trkpt>
      <trkpt lat="42.749908" lon="11.090250">
       <ele>3.89</ele>
       <time>2014-11-04T18:31:42Z</time>
      </trkpt>
      <trkpt lat="42.749988" lon="11.090808">
       <ele>3.99</ele>
       <time>2014-11-04T18:31:51Z</time>
      </trkpt>
      <trkpt lat="42.750045" lon="11.091611">
       <ele>4.11</ele>
       <time>2014-11-04T18:32:03Z</time>
      </trkpt>
      <trkpt lat="42.750152" lon="11.094323">
       <ele>6.82</ele>
       <time>2014-11-04T18:32:44Z</time>
      </trkpt>
      <trkpt lat="42.750175" lon="11.094443">
       <ele>6.91</ele>
       <time>2014-11-04T18:32:46Z</time>
      </trkpt>
      <trkpt lat="42.750225" lon="11.094561">
       <ele>6.93</ele>
       <time>2014-11-04T18:32:48Z</time>
      </trkpt>
      <trkpt lat="42.750278" lon="11.094620">
       <ele>6.88</ele>
       <time>2014-11-04T18:32:50Z</time>
      </trkpt>
      <trkpt lat="42.750331" lon="11.094619">
       <ele>6.75</ele>
       <time>2014-11-04T18:32:51Z</time>
      </trkpt>
      <trkpt lat="42.750373" lon="11.094650">
       <ele>6.68</ele>
       <time>2014-11-04T18:32:52Z</time>
      </trkpt>
      <trkpt lat="42.750331" lon="11.094791">
       <ele>6.95</ele>
       <time>2014-11-04T18:32:54Z</time>
      </trkpt>
      <trkpt lat="42.750270" lon="11.094819">
       <ele>7.13</ele>
       <time>2014-11-04T18:32:56Z</time>
      </trkpt>
      <trkpt lat="42.750213" lon="11.094896">
       <ele>7.36</ele>
       <time>2014-11-04T18:32:57Z</time>
      </trkpt>
      <trkpt lat="42.750179" lon="11.095000">
       <ele>7.57</ele>
       <time>2014-11-04T18:32:59Z</time>
      </trkpt>
      <trkpt lat="42.750148" lon="11.096123">
       <ele>7.34</ele>
       <time>2014-11-04T18:33:16Z</time>
      </trkpt>
      <trkpt lat="42.750160" lon="11.096269">
       <ele>7.66</ele>
       <time>2014-11-04T18:33:18Z</time>
      </trkpt>
      <trkpt lat="42.750202" lon="11.096375">
       <ele>7.82</ele>
       <time>2014-11-04T18:33:20Z</time>
      </trkpt>
      <trkpt lat="42.750282" lon="11.096432">
       <ele>7.76</ele>
       <time>2014-11-04T18:33:22Z</time>
      </trkpt>
      <trkpt lat="42.752506" lon="11.096500">
       <ele>10.59</ele>
       <time>2014-11-04T18:34:08Z</time>
      </trkpt>
      <trkpt lat="42.752540" lon="11.096534">
       <ele>10.58</ele>
       <time>2014-11-04T18:34:09Z</time>
      </trkpt>
      <trkpt lat="42.752555" lon="11.096582">
       <ele>10.66</ele>
       <time>2014-11-04T18:34:10Z</time>
      </trkpt>
      <trkpt lat="42.752555" lon="11.096670">
       <ele>10.87</ele>
       <time>2014-11-04T18:34:11Z</time>
      </trkpt>
      <trkpt lat="42.752471" lon="11.096665">
       <ele>10.93</ele>
       <time>2014-11-04T18:34:13Z</time>
      </trkpt>
      <trkpt lat="42.752357" lon="11.096772">
       <ele>10.7</ele>
       <time>2014-11-04T18:34:16Z</time>
      </trkpt>
      <trkpt lat="42.752330" lon="11.097059">
       <ele>10.79</ele>
       <time>2014-11-04T18:34:20Z</time>
      </trkpt>
      <trkpt lat="42.752330" lon="11.097396">
       <ele>10.95</ele>
       <time>2014-11-04T18:34:25Z</time>
      </trkpt>
      <trkpt lat="42.752292" lon="11.097554">
       <ele>10.93</ele>
       <time>2014-11-04T18:34:28Z</time>
      </trkpt>
      <trkpt lat="42.752349" lon="11.099423">
       <ele>9.43</ele>
       <time>2014-11-04T18:34:56Z</time>
      </trkpt>
      <trkpt lat="42.752330" lon="11.099724">
       <ele>9.74</ele>
       <time>2014-11-04T18:35:01Z</time>
      </trkpt>
      <trkpt lat="42.752567" lon="11.099932">
       <ele>9.7</ele>
       <time>2014-11-04T18:35:07Z</time>
      </trkpt>
      <trkpt lat="42.752632" lon="11.100036">
       <ele>9.45</ele>
       <time>2014-11-04T18:35:09Z</time>
      </trkpt>
      <trkpt lat="42.752662" lon="11.100152">
       <ele>9.12</ele>
       <time>2014-11-04T18:35:11Z</time>
      </trkpt>
      <trkpt lat="42.752651" lon="11.100242">
       <ele>8.98</ele>
       <time>2014-11-04T18:35:12Z</time>
      </trkpt>
      <trkpt lat="42.752666" lon="11.100350">
       <ele>8.73</ele>
       <time>2014-11-04T18:35:14Z</time>
      </trkpt>
      <trkpt lat="42.752738" lon="11.100463">
       <ele>8.35</ele>
       <time>2014-11-04T18:35:16Z</time>
      </trkpt>
      <trkpt lat="42.752819" lon="11.100506">
       <ele>8.1</ele>
       <time>2014-11-04T18:35:18Z</time>
      </trkpt>
      <trkpt lat="42.752872" lon="11.100507">
       <ele>7.99</ele>
       <time>2014-11-04T18:35:19Z</time>
      </trkpt>
      <trkpt lat="42.753040" lon="11.100730">
       <ele>7.44</ele>
       <time>2014-11-04T18:35:24Z</time>
      </trkpt>
      <trkpt lat="42.753170" lon="11.100975">
       <ele>7.27</ele>
       <time>2014-11-04T18:35:28Z</time>
      </trkpt>
      <trkpt lat="42.753093" lon="11.101050">
       <ele>7.32</ele>
       <time>2014-11-04T18:35:30Z</time>
      </trkpt>
      <trkpt lat="42.753070" lon="11.101044">
       <ele>7.33</ele>
       <time>2014-11-04T18:35:31Z</time>
      </trkpt>
      <trkpt lat="42.752853" lon="11.100860">
       <ele>7.55</ele>
       <time>2014-11-04T18:35:36Z</time>
      </trkpt>
      <trkpt lat="42.752826" lon="11.100852">
       <ele>7.59</ele>
       <time>2014-11-04T18:35:37Z</time>
      </trkpt>
      <trkpt lat="42.752704" lon="11.100892">
       <ele>7.67</ele>
       <time>2014-11-04T18:35:39Z</time>
      </trkpt>
      <trkpt lat="42.752677" lon="11.100921">
       <ele>7.64</ele>
       <time>2014-11-04T18:35:40Z</time>
      </trkpt>
      <trkpt lat="42.752174" lon="11.102331">
       <ele>7.74</ele>
       <time>2014-11-04T18:36:04Z</time>
      </trkpt>
      <trkpt lat="42.752071" lon="11.102723">
       <ele>8.69</ele>
       <time>2014-11-04T18:36:10Z</time>
      </trkpt>
      <trkpt lat="42.752025" lon="11.103137">
       <ele>9.89</ele>
       <time>2014-11-04T18:36:17Z</time>
      </trkpt>
      <trkpt lat="42.751991" lon="11.105746">
       <ele>10.7</ele>
       <time>2014-11-04T18:36:56Z</time>
      </trkpt>
      <trkpt lat="42.752006" lon="11.106203">
       <ele>10.01</ele>
       <time>2014-11-04T18:37:03Z</time>
      </trkpt>
      <trkpt lat="42.752025" lon="11.106362">
       <ele>9.68</ele>
       <time>2014-11-04T18:37:06Z</time>
      </trkpt>
      <trkpt lat="42.751998" lon="11.106460">
       <ele>9.45</ele>
       <time>2014-11-04T18:37:07Z</time>
      </trkpt>
      <trkpt lat="42.751991" lon="11.107467">
       <ele>7.29</ele>
       <time>2014-11-04T18:37:23Z</time>
      </trkpt>
      <trkpt lat="42.752002" lon="11.107571">
       <ele>7.28</ele>
       <time>2014-11-04T18:37:24Z</time>
      </trkpt>
      <trkpt lat="42.752071" lon="11.107766">
       <ele>7.35</ele>
       <time>2014-11-04T18:37:28Z</time>
      </trkpt>
      <trkpt lat="42.752296" lon="11.108098">
       <ele>7.21</ele>
       <time>2014-11-04T18:37:34Z</time>
      </trkpt>
      <trkpt lat="42.752418" lon="11.108164">
       <ele>6.99</ele>
       <time>2014-11-04T18:37:37Z</time>
      </trkpt>
      <trkpt lat="42.752510" lon="11.108187">
       <ele>6.83</ele>
       <time>2014-11-04T18:37:39Z</time>
      </trkpt>
      <trkpt lat="42.752639" lon="11.108148">
       <ele>6.85</ele>
       <time>2014-11-04T18:37:42Z</time>
      </trkpt>
      <trkpt lat="42.752754" lon="11.108167">
       <ele>6.92</ele>
       <time>2014-11-04T18:37:44Z</time>
      </trkpt>
      <trkpt lat="42.752777" lon="11.109279">
       <ele>10.27</ele>
       <time>2014-11-04T18:38:01Z</time>
      </trkpt>
      <trkpt lat="42.752754" lon="11.109338">
       <ele>10.41</ele>
       <time>2014-11-04T18:38:02Z</time>
      </trkpt>
      <trkpt lat="42.752700" lon="11.109381">
       <ele>10.51</ele>
       <time>2014-11-04T18:38:04Z</time>
      </trkpt>
      <trkpt lat="42.752429" lon="11.109418">
       <ele>10.44</ele>
       <time>2014-11-04T18:38:09Z</time>
      </trkpt>
      <trkpt lat="42.752479" lon="11.110824">
       <ele>11.85</ele>
       <time>2014-11-04T18:38:31Z</time>
      </trkpt>
      <trkpt lat="42.752582" lon="11.111044">
       <ele>10.92</ele>
       <time>2014-11-04T18:38:35Z</time>
      </trkpt>
      <trkpt lat="42.752582" lon="11.111223">
       <ele>10.08</ele>
       <time>2014-11-04T18:38:37Z</time>
      </trkpt>
      <trkpt lat="42.752632" lon="11.111330">
       <ele>9.55</ele>
       <time>2014-11-04T18:38:39Z</time>
      </trkpt>
      <trkpt lat="42.752876" lon="11.112154">
       <ele>7.94</ele>
       <time>2014-11-04T18:38:53Z</time>
      </trkpt>
      <trkpt lat="42.752765" lon="11.112253">
       <ele>7.74</ele>
       <time>2014-11-04T18:38:56Z</time>
      </trkpt>
      <trkpt lat="42.752494" lon="11.112444">
       <ele>7.07</ele>
       <time>2014-11-04T18:39:02Z</time>
      </trkpt>
      <trkpt lat="42.752414" lon="11.112483">
       <ele>7.12</ele>
       <time>2014-11-04T18:39:04Z</time>
      </trkpt>
      <trkpt lat="42.752353" lon="11.112453">
       <ele>7.21</ele>
       <time>2014-11-04T18:39:05Z</time>
      </trkpt>
      <trkpt lat="42.752258" lon="11.112483">
       <ele>7.3</ele>
       <time>2014-11-04T18:39:07Z</time>
      </trkpt>
      <trkpt lat="42.752094" lon="11.112684">
       <ele>7.49</ele>
       <time>2014-11-04T18:39:12Z</time>
      </trkpt>
      <trkpt lat="42.751949" lon="11.112783">
       <ele>7.55</ele>
       <time>2014-11-04T18:39:15Z</time>
      </trkpt>
      <trkpt lat="42.750209" lon="11.113322">
       <ele>7.52</ele>
       <time>2014-11-04T18:39:52Z</time>
      </trkpt>
      <trkpt lat="42.748725" lon="11.113827">
       <ele>7</ele>
       <time>2014-11-04T18:40:24Z</time>
      </trkpt>
      <trkpt lat="42.748222" lon="11.114068">
       <ele>6.88</ele>
       <time>2014-11-04T18:40:35Z</time>
      </trkpt>
      <trkpt lat="42.747840" lon="11.114285">
       <ele>6.47</ele>
       <time>2014-11-04T18:40:43Z</time>
      </trkpt>
      <trkpt lat="42.747314" lon="11.114640">
       <ele>6.22</ele>
       <time>2014-11-04T18:40:55Z</time>
      </trkpt>
      <trkpt lat="42.746517" lon="11.115319">
       <ele>7</ele>
       <time>2014-11-04T18:41:15Z</time>
      </trkpt>
      <trkpt lat="42.741092" lon="11.120117">
       <ele>7.68</ele>
       <time>2014-11-04T18:43:29Z</time>
      </trkpt>
      <trkpt lat="42.737712" lon="11.123167">
       <ele>8.75</ele>
       <time>2014-11-04T18:44:53Z</time>
      </trkpt>
      <trkpt lat="42.737327" lon="11.123558">
       <ele>8.73</ele>
       <time>2014-11-04T18:45:03Z</time>
      </trkpt>
      <trkpt lat="42.736915" lon="11.124039">
       <ele>8.15</ele>
       <time>2014-11-04T18:45:14Z</time>
      </trkpt>
      <trkpt lat="42.736495" lon="11.124753">
       <ele>8</ele>
       <time>2014-11-04T18:45:28Z</time>
      </trkpt>
      <trkpt lat="42.736267" lon="11.125199">
       <ele>8.24</ele>
       <time>2014-11-04T18:45:37Z</time>
      </trkpt>
      <trkpt lat="42.734157" lon="11.129924">
       <ele>8.81</ele>
       <time>2014-11-04T18:47:01Z</time>
      </trkpt>
      <trkpt lat="42.732959" lon="11.132603">
       <ele>10.02</ele>
       <time>2014-11-04T18:47:49Z</time>
      </trkpt>
      <trkpt lat="42.732746" lon="11.132804">
       <ele>11.05</ele>
       <time>2014-11-04T18:47:54Z</time>
      </trkpt>
      <trkpt lat="42.732604" lon="11.132809">
       <ele>11.16</ele>
       <time>2014-11-04T18:47:57Z</time>
      </trkpt>
      <trkpt lat="42.732521" lon="11.132773">
       <ele>10.96</ele>
       <time>2014-11-04T18:47:59Z</time>
      </trkpt>
      <trkpt lat="42.732227" lon="11.132579">
       <ele>8.62</ele>
       <time>2014-11-04T18:48:05Z</time>
      </trkpt>
      <trkpt lat="42.732082" lon="11.132601">
       <ele>8.28</ele>
       <time>2014-11-04T18:48:08Z</time>
      </trkpt>
      <trkpt lat="42.731983" lon="11.132661">
       <ele>8.42</ele>
       <time>2014-11-04T18:48:11Z</time>
      </trkpt>
      <trkpt lat="42.731922" lon="11.132738">
       <ele>8.83</ele>
       <time>2014-11-04T18:48:12Z</time>
      </trkpt>
      <trkpt lat="42.731864" lon="11.132869">
       <ele>9.71</ele>
       <time>2014-11-04T18:48:15Z</time>
      </trkpt>
      <trkpt lat="42.731857" lon="11.133028">
       <ele>10.98</ele>
       <time>2014-11-04T18:48:17Z</time>
      </trkpt>
      <trkpt lat="42.731876" lon="11.133160">
       <ele>12.1</ele>
       <time>2014-11-04T18:48:19Z</time>
      </trkpt>
      <trkpt lat="42.731906" lon="11.133232">
       <ele>12.76</ele>
       <time>2014-11-04T18:48:20Z</time>
      </trkpt>
      <trkpt lat="42.732013" lon="11.133364">
       <ele>13.93</ele>
       <time>2014-11-04T18:48:23Z</time>
      </trkpt>
      <trkpt lat="42.732357" lon="11.133589">
       <ele>15.12</ele>
       <time>2014-11-04T18:48:31Z</time>
      </trkpt>
      <trkpt lat="42.732994" lon="11.133935">
       <ele>13.94</ele>
       <time>2014-11-04T18:48:46Z</time>
      </trkpt>
      <trkpt lat="42.733257" lon="11.134166">
       <ele>13.27</ele>
       <time>2014-11-04T18:48:52Z</time>
      </trkpt>
      <trkpt lat="42.733356" lon="11.134292">
       <ele>13.13</ele>
       <time>2014-11-04T18:48:55Z</time>
      </trkpt>
      <trkpt lat="42.733467" lon="11.134589">
       <ele>13.43</ele>
       <time>2014-11-04T18:49:00Z</time>
      </trkpt>
      <trkpt lat="42.733531" lon="11.135170">
       <ele>14.56</ele>
       <time>2014-11-04T18:49:09Z</time>
      </trkpt>
      <trkpt lat="42.733581" lon="11.135407">
       <ele>15.32</ele>
       <time>2014-11-04T18:49:13Z</time>
      </trkpt>
      <trkpt lat="42.733695" lon="11.135654">
       <ele>16.01</ele>
       <time>2014-11-04T18:49:17Z</time>
      </trkpt>
      <trkpt lat="42.733558" lon="11.135787">
       <ele>16.58</ele>
       <time>2014-11-04T18:49:21Z</time>
      </trkpt>
      <trkpt lat="42.733451" lon="11.135934">
       <ele>17.13</ele>
       <time>2014-11-04T18:49:24Z</time>
      </trkpt>
      <trkpt lat="42.733409" lon="11.136041">
       <ele>17.45</ele>
       <time>2014-11-04T18:49:26Z</time>
      </trkpt>
      <trkpt lat="42.733345" lon="11.136539">
       <ele>18.7</ele>
       <time>2014-11-04T18:49:33Z</time>
      </trkpt>
      <trkpt lat="42.733291" lon="11.136663">
       <ele>19.04</ele>
       <time>2014-11-04T18:49:36Z</time>
      </trkpt>
      <trkpt lat="42.733238" lon="11.136720">
       <ele>19.05</ele>
       <time>2014-11-04T18:49:37Z</time>
      </trkpt>
      <trkpt lat="42.733169" lon="11.136754">
       <ele>19.09</ele>
       <time>2014-11-04T18:49:38Z</time>
      </trkpt>
      <trkpt lat="42.733108" lon="11.136752">
       <ele>19.17</ele>
       <time>2014-11-04T18:49:40Z</time>
      </trkpt>
      <trkpt lat="42.733001" lon="11.136720">
       <ele>19.33</ele>
       <time>2014-11-04T18:49:42Z</time>
      </trkpt>
      <trkpt lat="42.732345" lon="11.136428">
       <ele>19.9</ele>
       <time>2014-11-04T18:49:56Z</time>
      </trkpt>
      <trkpt lat="42.732181" lon="11.136453">
       <ele>20.13</ele>
       <time>2014-11-04T18:50:00Z</time>
      </trkpt>
      <trkpt lat="42.732097" lon="11.136511">
       <ele>20.3</ele>
       <time>2014-11-04T18:50:02Z</time>
      </trkpt>
      <trkpt lat="42.731986" lon="11.136628">
       <ele>20.57</ele>
       <time>2014-11-04T18:50:05Z</time>
      </trkpt>
      <trkpt lat="42.731925" lon="11.136769">
       <ele>20.82</ele>
       <time>2014-11-04T18:50:07Z</time>
      </trkpt>
      <trkpt lat="42.731903" lon="11.136918">
       <ele>21.06</ele>
       <time>2014-11-04T18:50:09Z</time>
      </trkpt>
      <trkpt lat="42.731800" lon="11.139612">
       <ele>28.18</ele>
       <time>2014-11-04T18:50:50Z</time>
      </trkpt>
      <trkpt lat="42.731437" lon="11.140124">
       <ele>29.86</ele>
       <time>2014-11-04T18:51:01Z</time>
      </trkpt>
      <trkpt lat="42.731349" lon="11.140356">
       <ele>30.87</ele>
       <time>2014-11-04T18:51:05Z</time>
      </trkpt>
      <trkpt lat="42.731285" lon="11.140402">
       <ele>30.99</ele>
       <time>2014-11-04T18:51:07Z</time>
      </trkpt>
      <trkpt lat="42.731140" lon="11.140377">
       <ele>30.75</ele>
       <time>2014-11-04T18:51:10Z</time>
      </trkpt>
      <trkpt lat="42.731033" lon="11.140402">
       <ele>30.71</ele>
       <time>2014-11-04T18:51:12Z</time>
      </trkpt>
      <trkpt lat="42.730926" lon="11.140484">
       <ele>30.73</ele>
       <time>2014-11-04T18:51:15Z</time>
      </trkpt>
      <trkpt lat="42.730781" lon="11.140633">
       <ele>30.79</ele>
       <time>2014-11-04T18:51:18Z</time>
      </trkpt>
      <trkpt lat="42.730220" lon="11.141327">
       <ele>34.1</ele>
       <time>2014-11-04T18:51:34Z</time>
      </trkpt>
      <trkpt lat="42.730117" lon="11.141559">
       <ele>35.34</ele>
       <time>2014-11-04T18:51:38Z</time>
      </trkpt>
      <trkpt lat="42.729785" lon="11.142980">
       <ele>40.91</ele>
       <time>2014-11-04T18:52:01Z</time>
      </trkpt>
      <trkpt lat="42.729698" lon="11.143121">
       <ele>41.3</ele>
       <time>2014-11-04T18:52:04Z</time>
      </trkpt>
      <trkpt lat="42.729564" lon="11.143214">
       <ele>41.01</ele>
       <time>2014-11-04T18:52:07Z</time>
      </trkpt>
      <trkpt lat="42.729019" lon="11.143121">
       <ele>37.51</ele>
       <time>2014-11-04T18:52:18Z</time>
      </trkpt>
      <trkpt lat="42.728000" lon="11.142832">
       <ele>36.31</ele>
       <time>2014-11-04T18:52:40Z</time>
      </trkpt>
      <trkpt lat="42.727489" lon="11.142743">
       <ele>36.54</ele>
       <time>2014-11-04T18:52:51Z</time>
      </trkpt>
      <trkpt lat="42.727130" lon="11.142765">
       <ele>35.01</ele>
       <time>2014-11-04T18:52:58Z</time>
      </trkpt>
      <trkpt lat="42.726749" lon="11.142856">
       <ele>33.64</ele>
       <time>2014-11-04T18:53:06Z</time>
      </trkpt>
      <trkpt lat="42.726367" lon="11.143065">
       <ele>33.91</ele>
       <time>2014-11-04T18:53:15Z</time>
      </trkpt>
      <trkpt lat="42.726028" lon="11.143344">
       <ele>34.27</ele>
       <time>2014-11-04T18:53:23Z</time>
      </trkpt>
      <trkpt lat="42.724121" lon="11.145220">
       <ele>36.83</ele>
       <time>2014-11-04T18:54:12Z</time>
      </trkpt>
      <trkpt lat="42.723842" lon="11.145396">
       <ele>37.79</ele>
       <time>2014-11-04T18:54:18Z</time>
      </trkpt>
      <trkpt lat="42.723270" lon="11.145857">
       <ele>37.93</ele>
       <time>2014-11-04T18:54:32Z</time>
      </trkpt>
      <trkpt lat="42.723056" lon="11.146146">
       <ele>38.21</ele>
       <time>2014-11-04T18:54:38Z</time>
      </trkpt>
      <trkpt lat="42.722412" lon="11.146900">
       <ele>38.29</ele>
       <time>2014-11-04T18:54:56Z</time>
      </trkpt>
      <trkpt lat="42.721908" lon="11.147212">
       <ele>38.55</ele>
       <time>2014-11-04T18:55:07Z</time>
      </trkpt>
      <trkpt lat="42.721477" lon="11.147419">
       <ele>39.59</ele>
       <time>2014-11-04T18:55:17Z</time>
      </trkpt>
      <trkpt lat="42.720756" lon="11.147908">
       <ele>42.29</ele>
       <time>2014-11-04T18:55:33Z</time>
      </trkpt>
      <trkpt lat="42.720611" lon="11.148049">
       <ele>42.45</ele>
       <time>2014-11-04T18:55:37Z</time>
      </trkpt>
      <trkpt lat="42.720481" lon="11.148369">
       <ele>43.27</ele>
       <time>2014-11-04T18:55:42Z</time>
      </trkpt>
      <trkpt lat="42.720355" lon="11.148600">
       <ele>43.63</ele>
       <time>2014-11-04T18:55:47Z</time>
      </trkpt>
      <trkpt lat="42.720211" lon="11.148751">
       <ele>43.64</ele>
       <time>2014-11-04T18:55:51Z</time>
      </trkpt>
      <trkpt lat="42.720035" lon="11.148892">
       <ele>43.46</ele>
       <time>2014-11-04T18:55:55Z</time>
      </trkpt>
      <trkpt lat="42.719699" lon="11.149230">
       <ele>42.94</ele>
       <time>2014-11-04T18:56:04Z</time>
      </trkpt>
      <trkpt lat="42.719570" lon="11.149460">
       <ele>42.44</ele>
       <time>2014-11-04T18:56:08Z</time>
      </trkpt>
      <trkpt lat="42.719512" lon="11.149636">
       <ele>42.15</ele>
       <time>2014-11-04T18:56:11Z</time>
      </trkpt>
      <trkpt lat="42.719383" lon="11.149832">
       <ele>41.4</ele>
       <time>2014-11-04T18:56:15Z</time>
      </trkpt>
      <trkpt lat="42.719104" lon="11.150675">
       <ele>40.69</ele>
       <time>2014-11-04T18:56:29Z</time>
      </trkpt>
      <trkpt lat="42.718959" lon="11.150908">
       <ele>40.98</ele>
       <time>2014-11-04T18:56:34Z</time>
      </trkpt>
      <trkpt lat="42.718696" lon="11.151229">
       <ele>41.32</ele>
       <time>2014-11-04T18:56:41Z</time>
      </trkpt>
      <trkpt lat="42.717658" lon="11.152702">
       <ele>37.34</ele>
       <time>2014-11-04T18:57:12Z</time>
      </trkpt>
      <trkpt lat="42.717174" lon="11.153305">
       <ele>36.76</ele>
       <time>2014-11-04T18:57:26Z</time>
      </trkpt>
      <trkpt lat="42.716602" lon="11.153859">
       <ele>37.12</ele>
       <time>2014-11-04T18:57:40Z</time>
      </trkpt>
      <trkpt lat="42.716255" lon="11.154148">
       <ele>35.97</ele>
       <time>2014-11-04T18:57:49Z</time>
      </trkpt>
      <trkpt lat="42.716129" lon="11.154320">
       <ele>35.5</ele>
       <time>2014-11-04T18:57:52Z</time>
      </trkpt>
      <trkpt lat="42.716026" lon="11.154553">
       <ele>35.32</ele>
       <time>2014-11-04T18:57:56Z</time>
      </trkpt>
      <trkpt lat="42.716003" lon="11.154956">
       <ele>36.12</ele>
       <time>2014-11-04T18:58:03Z</time>
      </trkpt>
      <trkpt lat="42.715942" lon="11.155132">
       <ele>36.7</ele>
       <time>2014-11-04T18:58:06Z</time>
      </trkpt>
      <trkpt lat="42.715812" lon="11.155245">
       <ele>36.66</ele>
       <time>2014-11-04T18:58:09Z</time>
      </trkpt>
      <trkpt lat="42.715515" lon="11.155363">
       <ele>35.92</ele>
       <time>2014-11-04T18:58:15Z</time>
      </trkpt>
      <trkpt lat="42.715156" lon="11.155425">
       <ele>34.4</ele>
       <time>2014-11-04T18:58:23Z</time>
      </trkpt>
      <trkpt lat="42.714443" lon="11.154740">
       <ele>26.1</ele>
       <time>2014-11-04T18:58:41Z</time>
      </trkpt>
      <trkpt lat="42.713806" lon="11.154177">
       <ele>19.75</ele>
       <time>2014-11-04T18:58:57Z</time>
      </trkpt>
      <trkpt lat="42.713310" lon="11.153820">
       <ele>17.15</ele>
       <time>2014-11-04T18:59:08Z</time>
      </trkpt>
      <trkpt lat="42.712585" lon="11.156188">
       <ele>19.92</ele>
       <time>2014-11-04T18:59:47Z</time>
      </trkpt>
      <trkpt lat="42.712493" lon="11.156622">
       <ele>19.93</ele>
       <time>2014-11-04T18:59:54Z</time>
      </trkpt>
      <trkpt lat="42.712459" lon="11.157003">
       <ele>20.67</ele>
       <time>2014-11-04T19:00:00Z</time>
      </trkpt>
      <trkpt lat="42.712577" lon="11.157587">
       <ele>22.65</ele>
       <time>2014-11-04T19:00:09Z</time>
      </trkpt>
      <trkpt lat="42.712505" lon="11.157955">
       <ele>22.58</ele>
       <time>2014-11-04T19:00:15Z</time>
      </trkpt>
      <trkpt lat="42.712345" lon="11.158159">
       <ele>22.34</ele>
       <time>2014-11-04T19:00:20Z</time>
      </trkpt>
      <trkpt lat="42.710273" lon="11.160145">
       <ele>25.51</ele>
       <time>2014-11-04T19:01:12Z</time>
      </trkpt>
      <trkpt lat="42.709968" lon="11.160780">
       <ele>27.56</ele>
       <time>2014-11-04T19:01:24Z</time>
      </trkpt>
      <trkpt lat="42.709533" lon="11.161833">
       <ele>28.36</ele>
       <time>2014-11-04T19:01:42Z</time>
      </trkpt>
      <trkpt lat="42.708965" lon="11.164575">
       <ele>33.52</ele>
       <time>2014-11-04T19:02:25Z</time>
      </trkpt>
      <trkpt lat="42.708847" lon="11.164849">
       <ele>33.53</ele>
       <time>2014-11-04T19:02:30Z</time>
      </trkpt>
      <trkpt lat="42.708202" lon="11.165778">
       <ele>35.42</ele>
       <time>2014-11-04T19:02:50Z</time>
      </trkpt>
      <trkpt lat="42.707645" lon="11.166507">
       <ele>35.97</ele>
       <time>2014-11-04T19:03:06Z</time>
      </trkpt>
      <trkpt lat="42.707103" lon="11.167039">
       <ele>35.42</ele>
       <time>2014-11-04T19:03:20Z</time>
      </trkpt>
      <trkpt lat="42.706035" lon="11.168407">
       <ele>33.1</ele>
       <time>2014-11-04T19:03:50Z</time>
      </trkpt>
      <trkpt lat="42.705471" lon="11.169368">
       <ele>33.14</ele>
       <time>2014-11-04T19:04:09Z</time>
      </trkpt>
      <trkpt lat="42.703102" lon="11.172602">
       <ele>34.46</ele>
       <time>2014-11-04T19:05:18Z</time>
      </trkpt>
      <trkpt lat="42.702587" lon="11.172987">
       <ele>35.51</ele>
       <time>2014-11-04T19:05:31Z</time>
      </trkpt>
      <trkpt lat="42.702415" lon="11.173097">
       <ele>36.32</ele>
       <time>2014-11-04T19:05:35Z</time>
      </trkpt>
      <trkpt lat="42.701393" lon="11.173748">
       <ele>41.33</ele>
       <time>2014-11-04T19:05:58Z</time>
      </trkpt>
      <trkpt lat="42.700885" lon="11.174143">
       <ele>43.01</ele>
       <time>2014-11-04T19:06:10Z</time>
      </trkpt>
      <trkpt lat="42.699539" lon="11.175978">
       <ele>45.96</ele>
       <time>2014-11-04T19:06:50Z</time>
      </trkpt>
      <trkpt lat="42.699092" lon="11.177034">
       <ele>49.25</ele>
       <time>2014-11-04T19:07:08Z</time>
      </trkpt>
      <trkpt lat="42.698982" lon="11.177332">
       <ele>50.04</ele>
       <time>2014-11-04T19:07:13Z</time>
      </trkpt>
      <trkpt lat="42.696552" lon="11.178697">
       <ele>53.73</ele>
       <time>2014-11-04T19:08:08Z</time>
      </trkpt>
      <trkpt lat="42.695465" lon="11.179332">
       <ele>54.48</ele>
       <time>2014-11-04T19:08:32Z</time>
      </trkpt>
      <trkpt lat="42.695053" lon="11.179808">
       <ele>55.52</ele>
       <time>2014-11-04T19:08:43Z</time>
      </trkpt>
      <trkpt lat="42.693912" lon="11.181365">
       <ele>57.52</ele>
       <time>2014-11-04T19:09:17Z</time>
      </trkpt>
      <trkpt lat="42.692401" lon="11.183480">
       <ele>64.22</ele>
       <time>2014-11-04T19:10:02Z</time>
      </trkpt>
      <trkpt lat="42.691791" lon="11.184036">
       <ele>65.41</ele>
       <time>2014-11-04T19:10:17Z</time>
      </trkpt>
      <trkpt lat="42.690311" lon="11.185235">
       <ele>69.33</ele>
       <time>2014-11-04T19:10:53Z</time>
      </trkpt>
      <trkpt lat="42.689533" lon="11.186164">
       <ele>69.61</ele>
       <time>2014-11-04T19:11:14Z</time>
      </trkpt>
      <trkpt lat="42.689128" lon="11.186758">
       <ele>70.33</ele>
       <time>2014-11-04T19:11:27Z</time>
      </trkpt>
      <trkpt lat="42.688911" lon="11.187474">
       <ele>72.08</ele>
       <time>2014-11-04T19:11:38Z</time>
      </trkpt>
      <trkpt lat="42.688896" lon="11.187835">
       <ele>72.71</ele>
       <time>2014-11-04T19:11:44Z</time>
      </trkpt>
      <trkpt lat="42.688972" lon="11.188358">
       <ele>74.07</ele>
       <time>2014-11-04T19:11:52Z</time>
      </trkpt>
      <trkpt lat="42.688831" lon="11.188673">
       <ele>73.64</ele>
       <time>2014-11-04T19:11:58Z</time>
      </trkpt>
      <trkpt lat="42.688644" lon="11.188958">
       <ele>73.62</ele>
       <time>2014-11-04T19:12:04Z</time>
      </trkpt>
      <trkpt lat="42.688480" lon="11.189077">
       <ele>73.75</ele>
       <time>2014-11-04T19:12:07Z</time>
      </trkpt>
      <trkpt lat="42.688175" lon="11.189234">
       <ele>74.02</ele>
       <time>2014-11-04T19:12:14Z</time>
      </trkpt>
      <trkpt lat="42.687545" lon="11.189944">
       <ele>76.78</ele>
       <time>2014-11-04T19:12:31Z</time>
      </trkpt>
      <trkpt lat="42.685760" lon="11.192063">
       <ele>79.82</ele>
       <time>2014-11-04T19:13:20Z</time>
      </trkpt>
      <trkpt lat="42.685081" lon="11.193099">
       <ele>82.65</ele>
       <time>2014-11-04T19:13:41Z</time>
      </trkpt>
      <trkpt lat="42.684738" lon="11.193241">
       <ele>84.7</ele>
       <time>2014-11-04T19:13:49Z</time>
      </trkpt>
      <trkpt lat="42.683849" lon="11.193431">
       <ele>89.45</ele>
       <time>2014-11-04T19:14:07Z</time>
      </trkpt>
      <trkpt lat="42.682365" lon="11.193688">
       <ele>94.77</ele>
       <time>2014-11-04T19:14:39Z</time>
      </trkpt>
      <trkpt lat="42.681728" lon="11.193836">
       <ele>98.33</ele>
       <time>2014-11-04T19:14:52Z</time>
      </trkpt>
      <trkpt lat="42.681438" lon="11.193943">
       <ele>98.44</ele>
       <time>2014-11-04T19:14:58Z</time>
      </trkpt>
      <trkpt lat="42.680923" lon="11.194672">
       <ele>102.16</ele>
       <time>2014-11-04T19:15:14Z</time>
      </trkpt>
      <trkpt lat="42.680896" lon="11.195031">
       <ele>106.31</ele>
       <time>2014-11-04T19:15:19Z</time>
      </trkpt>
      <trkpt lat="42.680789" lon="11.195444">
       <ele>111.51</ele>
       <time>2014-11-04T19:15:26Z</time>
      </trkpt>
      <trkpt lat="42.680694" lon="11.195524">
       <ele>111.85</ele>
       <time>2014-11-04T19:15:28Z</time>
      </trkpt>
      <trkpt lat="42.680511" lon="11.195507">
       <ele>109.82</ele>
       <time>2014-11-04T19:15:32Z</time>
      </trkpt>
      <trkpt lat="42.680229" lon="11.195635">
       <ele>109.1</ele>
       <time>2014-11-04T19:15:38Z</time>
      </trkpt>
      <trkpt lat="42.679569" lon="11.196066">
       <ele>110.59</ele>
       <time>2014-11-04T19:15:53Z</time>
      </trkpt>
      <trkpt lat="42.679218" lon="11.196640">
       <ele>117.26</ele>
       <time>2014-11-04T19:16:05Z</time>
      </trkpt>
      <trkpt lat="42.678936" lon="11.196870">
       <ele>118</ele>
       <time>2014-11-04T19:16:11Z</time>
      </trkpt>
      <trkpt lat="42.678504" lon="11.197261">
       <ele>119.74</ele>
       <time>2014-11-04T19:16:22Z</time>
      </trkpt>
      <trkpt lat="42.678104" lon="11.197772">
       <ele>122.13</ele>
       <time>2014-11-04T19:16:34Z</time>
      </trkpt>
      <trkpt lat="42.677963" lon="11.198237">
       <ele>126.11</ele>
       <time>2014-11-04T19:16:41Z</time>
      </trkpt>
      <trkpt lat="42.677669" lon="11.198628">
       <ele>124.72</ele>
       <time>2014-11-04T19:16:50Z</time>
      </trkpt>
      <trkpt lat="42.677639" lon="11.198781">
       <ele>125.76</ele>
       <time>2014-11-04T19:16:52Z</time>
      </trkpt>
      <trkpt lat="42.677711" lon="11.198949">
       <ele>129.15</ele>
       <time>2014-11-04T19:16:55Z</time>
      </trkpt>
      <trkpt lat="42.677661" lon="11.199255">
       <ele>131.45</ele>
       <time>2014-11-04T19:17:00Z</time>
      </trkpt>
      <trkpt lat="42.677448" lon="11.199517">
       <ele>130.12</ele>
       <time>2014-11-04T19:17:06Z</time>
      </trkpt>
      <trkpt lat="42.677345" lon="11.200331">
       <ele>137.84</ele>
       <time>2014-11-04T19:17:18Z</time>
      </trkpt>
      <trkpt lat="42.677265" lon="11.200730">
       <ele>142.07</ele>
       <time>2014-11-04T19:17:25Z</time>
      </trkpt>
      <trkpt lat="42.677139" lon="11.200832">
       <ele>143.42</ele>
       <time>2014-11-04T19:17:28Z</time>
      </trkpt>
      <trkpt lat="42.677028" lon="11.200824">
       <ele>143.42</ele>
       <time>2014-11-04T19:17:30Z</time>
      </trkpt>
      <trkpt lat="42.676841" lon="11.200526">
       <ele>138.3</ele>
       <time>2014-11-04T19:17:36Z</time>
      </trkpt>
      <trkpt lat="42.676750" lon="11.200456">
       <ele>136.65</ele>
       <time>2014-11-04T19:17:38Z</time>
      </trkpt>
      <trkpt lat="42.676570" lon="11.200503">
       <ele>136.69</ele>
       <time>2014-11-04T19:17:42Z</time>
      </trkpt>
      <trkpt lat="42.676292" lon="11.200801">
       <ele>139.47</ele>
       <time>2014-11-04T19:17:49Z</time>
      </trkpt>
      <trkpt lat="42.675983" lon="11.201205">
       <ele>145.56</ele>
       <time>2014-11-04T19:17:58Z</time>
      </trkpt>
      <trkpt lat="42.675830" lon="11.201277">
       <ele>146.71</ele>
       <time>2014-11-04T19:18:02Z</time>
      </trkpt>
      <trkpt lat="42.675201" lon="11.201330">
       <ele>147.96</ele>
       <time>2014-11-04T19:18:15Z</time>
      </trkpt>
      <trkpt lat="42.674915" lon="11.201455">
       <ele>150.8</ele>
       <time>2014-11-04T19:18:21Z</time>
      </trkpt>
      <trkpt lat="42.674457" lon="11.201793">
       <ele>152.33</ele>
       <time>2014-11-04T19:18:32Z</time>
      </trkpt>
      <trkpt lat="42.674121" lon="11.202472">
       <ele>159.88</ele>
       <time>2014-11-04T19:18:44Z</time>
      </trkpt>
      <trkpt lat="42.674110" lon="11.203605">
       <ele>168.18</ele>
       <time>2014-11-04T19:19:01Z</time>
      </trkpt>
      <trkpt lat="42.673896" lon="11.204835">
       <ele>174.58</ele>
       <time>2014-11-04T19:19:21Z</time>
      </trkpt>
      <trkpt lat="42.673969" lon="11.206443">
       <ele>183.03</ele>
       <time>2014-11-04T19:19:45Z</time>
      </trkpt>
      <trkpt lat="42.673980" lon="11.206727">
       <ele>184.31</ele>
       <time>2014-11-04T19:19:50Z</time>
      </trkpt>
      <trkpt lat="42.673782" lon="11.207406">
       <ele>189.76</ele>
       <time>2014-11-04T19:20:01Z</time>
      </trkpt>
      <trkpt lat="42.673458" lon="11.207771">
       <ele>195.08</ele>
       <time>2014-11-04T19:20:09Z</time>
      </trkpt>
      <trkpt lat="42.673015" lon="11.208105">
       <ele>202.69</ele>
       <time>2014-11-04T19:20:20Z</time>
      </trkpt>
      <trkpt lat="42.672828" lon="11.208127">
       <ele>204.51</ele>
       <time>2014-11-04T19:20:24Z</time>
      </trkpt>
      <trkpt lat="42.672630" lon="11.208092">
       <ele>205.85</ele>
       <time>2014-11-04T19:20:28Z</time>
      </trkpt>
      <trkpt lat="42.672111" lon="11.207763">
       <ele>205.46</ele>
       <time>2014-11-04T19:20:40Z</time>
      </trkpt>
      <trkpt lat="42.671260" lon="11.207104">
       <ele>200.37</ele>
       <time>2014-11-04T19:21:00Z</time>
      </trkpt>
      <trkpt lat="42.670631" lon="11.206519">
       <ele>196.64</ele>
       <time>2014-11-04T19:21:16Z</time>
      </trkpt>
      <trkpt lat="42.670131" lon="11.206185">
       <ele>196.43</ele>
       <time>2014-11-04T19:21:28Z</time>
      </trkpt>
      <trkpt lat="42.669799" lon="11.206060">
       <ele>197.06</ele>
       <time>2014-11-04T19:21:35Z</time>
      </trkpt>
      <trkpt lat="42.669551" lon="11.206092">
       <ele>196.43</ele>
       <time>2014-11-04T19:21:40Z</time>
      </trkpt>
      <trkpt lat="42.669040" lon="11.206491">
       <ele>192.08</ele>
       <time>2014-11-04T19:21:52Z</time>
      </trkpt>
      <trkpt lat="42.667804" lon="11.206296">
       <ele>190.17</ele>
       <time>2014-11-04T19:22:18Z</time>
      </trkpt>
      <trkpt lat="42.666790" lon="11.206315">
       <ele>189.58</ele>
       <time>2014-11-04T19:22:39Z</time>
      </trkpt>
      <trkpt lat="42.666603" lon="11.206404">
       <ele>189.62</ele>
       <time>2014-11-04T19:22:43Z</time>
      </trkpt>
      <trkpt lat="42.666416" lon="11.206700">
       <ele>189.54</ele>
       <time>2014-11-04T19:22:49Z</time>
      </trkpt>
      <trkpt lat="42.666049" lon="11.207193">
       <ele>190.32</ele>
       <time>2014-11-04T19:23:00Z</time>
      </trkpt>
      <trkpt lat="42.665618" lon="11.207514">
       <ele>189.18</ele>
       <time>2014-11-04T19:23:10Z</time>
      </trkpt>
      <trkpt lat="42.664955" lon="11.207895">
       <ele>188.95</ele>
       <time>2014-11-04T19:23:25Z</time>
      </trkpt>
      <trkpt lat="42.664710" lon="11.208171">
       <ele>190.22</ele>
       <time>2014-11-04T19:23:31Z</time>
      </trkpt>
      <trkpt lat="42.664077" lon="11.209108">
       <ele>194.7</ele>
       <time>2014-11-04T19:23:51Z</time>
      </trkpt>
      <trkpt lat="42.663631" lon="11.209678">
       <ele>197.16</ele>
       <time>2014-11-04T19:24:03Z</time>
      </trkpt>
      <trkpt lat="42.662830" lon="11.210477">
       <ele>194.87</ele>
       <time>2014-11-04T19:24:24Z</time>
      </trkpt>
      <trkpt lat="42.662277" lon="11.210903">
       <ele>194.77</ele>
       <time>2014-11-04T19:24:37Z</time>
      </trkpt>
      <trkpt lat="42.662082" lon="11.210920">
       <ele>194.74</ele>
       <time>2014-11-04T19:24:41Z</time>
      </trkpt>
      <trkpt lat="42.661201" lon="11.210935">
       <ele>193.08</ele>
       <time>2014-11-04T19:25:00Z</time>
      </trkpt>
      <trkpt lat="42.660663" lon="11.210717">
       <ele>190.63</ele>
       <time>2014-11-04T19:25:11Z</time>
      </trkpt>
      <trkpt lat="42.659751" lon="11.210263">
       <ele>182.79</ele>
       <time>2014-11-04T19:25:31Z</time>
      </trkpt>
      <trkpt lat="42.659484" lon="11.210206">
       <ele>179.89</ele>
       <time>2014-11-04T19:25:37Z</time>
      </trkpt>
      <trkpt lat="42.659240" lon="11.210335">
       <ele>177.95</ele>
       <time>2014-11-04T19:25:42Z</time>
      </trkpt>
      <trkpt lat="42.659019" lon="11.210637">
       <ele>177.35</ele>
       <time>2014-11-04T19:25:49Z</time>
      </trkpt>
      <trkpt lat="42.658679" lon="11.211209">
       <ele>175.74</ele>
       <time>2014-11-04T19:26:00Z</time>
      </trkpt>
      <trkpt lat="42.658554" lon="11.211321">
       <ele>174.75</ele>
       <time>2014-11-04T19:26:03Z</time>
      </trkpt>
      <trkpt lat="42.657489" lon="11.211406">
       <ele>171.62</ele>
       <time>2014-11-04T19:26:25Z</time>
      </trkpt>
      <trkpt lat="42.657009" lon="11.211623">
       <ele>172.65</ele>
       <time>2014-11-04T19:26:36Z</time>
      </trkpt>
      <trkpt lat="42.656009" lon="11.212155">
       <ele>170.57</ele>
       <time>2014-11-04T19:26:58Z</time>
      </trkpt>
      <trkpt lat="42.655292" lon="11.212507">
       <ele>169.29</ele>
       <time>2014-11-04T19:27:14Z</time>
      </trkpt>
      <trkpt lat="42.653656" lon="11.214302">
       <ele>173.83</ele>
       <time>2014-11-04T19:27:57Z</time>
      </trkpt>
      <trkpt lat="42.652912" lon="11.214782">
       <ele>176.71</ele>
       <time>2014-11-04T19:28:14Z</time>
      </trkpt>
      <trkpt lat="42.651138" lon="11.215843">
       <ele>184.78</ele>
       <time>2014-11-04T19:28:55Z</time>
      </trkpt>
      <trkpt lat="42.650886" lon="11.216198">
       <ele>185.77</ele>
       <time>2014-11-04T19:29:02Z</time>
      </trkpt>
      <trkpt lat="42.650379" lon="11.217411">
       <ele>188.25</ele>
       <time>2014-11-04T19:29:23Z</time>
      </trkpt>
      <trkpt lat="42.650062" lon="11.217922">
       <ele>189.78</ele>
       <time>2014-11-04T19:29:34Z</time>
      </trkpt>
      <trkpt lat="42.649864" lon="11.218113">
       <ele>189.59</ele>
       <time>2014-11-04T19:29:39Z</time>
      </trkpt>
      <trkpt lat="42.648777" lon="11.218704">
       <ele>190.43</ele>
       <time>2014-11-04T19:30:03Z</time>
      </trkpt>
      <trkpt lat="42.646488" lon="11.219884">
       <ele>201.4</ele>
       <time>2014-11-04T19:30:54Z</time>
      </trkpt>
      <trkpt lat="42.644756" lon="11.220799">
       <ele>206.53</ele>
       <time>2014-11-04T19:31:32Z</time>
      </trkpt>
      <trkpt lat="42.644626" lon="11.220919">
       <ele>205.94</ele>
       <time>2014-11-04T19:31:36Z</time>
      </trkpt>
      <trkpt lat="42.644523" lon="11.221179">
       <ele>205.41</ele>
       <time>2014-11-04T19:31:40Z</time>
      </trkpt>
      <trkpt lat="42.644477" lon="11.221721">
       <ele>205.85</ele>
       <time>2014-11-04T19:31:48Z</time>
      </trkpt>
      <trkpt lat="42.644359" lon="11.222458">
       <ele>202.57</ele>
       <time>2014-11-04T19:32:00Z</time>
      </trkpt>
      <trkpt lat="42.644153" lon="11.222867">
       <ele>200.65</ele>
       <time>2014-11-04T19:32:07Z</time>
      </trkpt>
      <trkpt lat="42.643836" lon="11.223324">
       <ele>197.21</ele>
       <time>2014-11-04T19:32:17Z</time>
      </trkpt>
      <trkpt lat="42.643501" lon="11.224701">
       <ele>191.27</ele>
       <time>2014-11-04T19:32:39Z</time>
      </trkpt>
      <trkpt lat="42.643276" lon="11.225488">
       <ele>188.92</ele>
       <time>2014-11-04T19:32:52Z</time>
      </trkpt>
      <trkpt lat="42.643005" lon="11.225757">
       <ele>188.88</ele>
       <time>2014-11-04T19:32:59Z</time>
      </trkpt>
      <trkpt lat="42.642410" lon="11.226085">
       <ele>186.2</ele>
       <time>2014-11-04T19:33:12Z</time>
      </trkpt>
      <trkpt lat="42.641948" lon="11.226402">
       <ele>185.74</ele>
       <time>2014-11-04T19:33:23Z</time>
      </trkpt>
      <trkpt lat="42.641616" lon="11.226763">
       <ele>187.35</ele>
       <time>2014-11-04T19:33:32Z</time>
      </trkpt>
      <trkpt lat="42.641185" lon="11.227133">
       <ele>190.14</ele>
       <time>2014-11-04T19:33:42Z</time>
      </trkpt>
      <trkpt lat="42.640556" lon="11.227418">
       <ele>189.88</ele>
       <time>2014-11-04T19:33:56Z</time>
      </trkpt>
      <trkpt lat="42.639907" lon="11.227741">
       <ele>187.27</ele>
       <time>2014-11-04T19:34:10Z</time>
      </trkpt>
      <trkpt lat="42.639335" lon="11.227717">
       <ele>187.84</ele>
       <time>2014-11-04T19:34:22Z</time>
      </trkpt>
      <trkpt lat="42.638759" lon="11.227746">
       <ele>188.18</ele>
       <time>2014-11-04T19:34:34Z</time>
      </trkpt>
      <trkpt lat="42.638240" lon="11.227723">
       <ele>188.26</ele>
       <time>2014-11-04T19:34:45Z</time>
      </trkpt>
      <trkpt lat="42.637920" lon="11.227733">
       <ele>188.91</ele>
       <time>2014-11-04T19:34:52Z</time>
      </trkpt>
      <trkpt lat="42.637592" lon="11.227553">
       <ele>189.64</ele>
       <time>2014-11-04T19:34:59Z</time>
      </trkpt>
      <trkpt lat="42.636913" lon="11.227133">
       <ele>189.6</ele>
       <time>2014-11-04T19:35:14Z</time>
      </trkpt>
      <trkpt lat="42.635929" lon="11.226927">
       <ele>188.23</ele>
       <time>2014-11-04T19:35:35Z</time>
      </trkpt>
      <trkpt lat="42.634948" lon="11.226771">
       <ele>185.12</ele>
       <time>2014-11-04T19:35:56Z</time>
      </trkpt>
      <trkpt lat="42.634563" lon="11.226729">
       <ele>183.09</ele>
       <time>2014-11-04T19:36:04Z</time>
      </trkpt>
      <trkpt lat="42.634082" lon="11.226819">
       <ele>181.09</ele>
       <time>2014-11-04T19:36:14Z</time>
      </trkpt>
      <trkpt lat="42.633628" lon="11.226824">
       <ele>179.6</ele>
       <time>2014-11-04T19:36:23Z</time>
      </trkpt>
      <trkpt lat="42.633304" lon="11.226547">
       <ele>177.96</ele>
       <time>2014-11-04T19:36:31Z</time>
      </trkpt>
      <trkpt lat="42.632999" lon="11.226284">
       <ele>176.71</ele>
       <time>2014-11-04T19:36:39Z</time>
      </trkpt>
      <trkpt lat="42.632591" lon="11.225741">
       <ele>173.42</ele>
       <time>2014-11-04T19:36:50Z</time>
      </trkpt>
      <trkpt lat="42.632331" lon="11.225595">
       <ele>170.91</ele>
       <time>2014-11-04T19:36:56Z</time>
      </trkpt>
      <trkpt lat="42.632034" lon="11.225818">
       <ele>170.97</ele>
       <time>2014-11-04T19:37:03Z</time>
      </trkpt>
      <trkpt lat="42.631301" lon="11.226472">
       <ele>167.91</ele>
       <time>2014-11-04T19:37:21Z</time>
      </trkpt>
      <trkpt lat="42.630889" lon="11.227020">
       <ele>164.18</ele>
       <time>2014-11-04T19:37:33Z</time>
      </trkpt>
      <trkpt lat="42.630676" lon="11.227442">
       <ele>161.67</ele>
       <time>2014-11-04T19:37:41Z</time>
      </trkpt>
      <trkpt lat="42.630661" lon="11.227807">
       <ele>160.64</ele>
       <time>2014-11-04T19:37:47Z</time>
      </trkpt>
      <trkpt lat="42.630676" lon="11.228135">
       <ele>159.88</ele>
       <time>2014-11-04T19:37:52Z</time>
      </trkpt>
      <trkpt lat="42.630573" lon="11.228444">
       <ele>158.14</ele>
       <time>2014-11-04T19:37:57Z</time>
      </trkpt>
      <trkpt lat="42.630435" lon="11.228686">
       <ele>156.69</ele>
       <time>2014-11-04T19:38:02Z</time>
      </trkpt>
      <trkpt lat="42.630088" lon="11.229146">
       <ele>153.73</ele>
       <time>2014-11-04T19:38:12Z</time>
      </trkpt>
      <trkpt lat="42.629722" lon="11.229294">
       <ele>149.88</ele>
       <time>2014-11-04T19:38:20Z</time>
      </trkpt>
      <trkpt lat="42.629405" lon="11.229358">
       <ele>147.22</ele>
       <time>2014-11-04T19:38:26Z</time>
      </trkpt>
      <trkpt lat="42.629264" lon="11.229319">
       <ele>146.57</ele>
       <time>2014-11-04T19:38:29Z</time>
      </trkpt>
      <trkpt lat="42.629119" lon="11.229186">
       <ele>146.36</ele>
       <time>2014-11-04T19:38:33Z</time>
      </trkpt>
      <trkpt lat="42.628997" lon="11.228960">
       <ele>144.43</ele>
       <time>2014-11-04T19:38:37Z</time>
      </trkpt>
      <trkpt lat="42.628902" lon="11.228860">
       <ele>143.04</ele>
       <time>2014-11-04T19:38:40Z</time>
      </trkpt>
      <trkpt lat="42.628784" lon="11.228877">
       <ele>141.83</ele>
       <time>2014-11-04T19:38:42Z</time>
      </trkpt>
      <trkpt lat="42.628673" lon="11.229018">
       <ele>141.14</ele>
       <time>2014-11-04T19:38:45Z</time>
      </trkpt>
      <trkpt lat="42.628433" lon="11.229537">
       <ele>137.98</ele>
       <time>2014-11-04T19:38:55Z</time>
      </trkpt>
      <trkpt lat="42.628147" lon="11.229886">
       <ele>136.33</ele>
       <time>2014-11-04T19:39:03Z</time>
      </trkpt>
      <trkpt lat="42.623786" lon="11.232624">
       <ele>130.64</ele>
       <time>2014-11-04T19:40:42Z</time>
      </trkpt>
      <trkpt lat="42.621315" lon="11.234994">
       <ele>131.12</ele>
       <time>2014-11-04T19:41:45Z</time>
      </trkpt>
      <trkpt lat="42.620868" lon="11.235594">
       <ele>134.07</ele>
       <time>2014-11-04T19:41:58Z</time>
      </trkpt>
      <trkpt lat="42.620609" lon="11.235857">
       <ele>134.59</ele>
       <time>2014-11-04T19:42:05Z</time>
      </trkpt>
      <trkpt lat="42.620319" lon="11.236056">
       <ele>134.75</ele>
       <time>2014-11-04T19:42:11Z</time>
      </trkpt>
      <trkpt lat="42.619709" lon="11.236326">
       <ele>136.4</ele>
       <time>2014-11-04T19:42:25Z</time>
      </trkpt>
      <trkpt lat="42.618762" lon="11.237231">
       <ele>141.09</ele>
       <time>2014-11-04T19:42:49Z</time>
      </trkpt>
      <trkpt lat="42.617473" lon="11.237850">
       <ele>135.85</ele>
       <time>2014-11-04T19:43:17Z</time>
      </trkpt>
      <trkpt lat="42.612564" lon="11.241251">
       <ele>110.42</ele>
       <time>2014-11-04T19:45:11Z</time>
      </trkpt>
      <trkpt lat="42.612106" lon="11.241624">
       <ele>110.45</ele>
       <time>2014-11-04T19:45:22Z</time>
      </trkpt>
      <trkpt lat="42.611839" lon="11.241909">
       <ele>109.63</ele>
       <time>2014-11-04T19:45:29Z</time>
      </trkpt>
      <trkpt lat="42.611240" lon="11.242708">
       <ele>105.34</ele>
       <time>2014-11-04T19:45:47Z</time>
      </trkpt>
      <trkpt lat="42.610858" lon="11.243452">
       <ele>103.29</ele>
       <time>2014-11-04T19:46:01Z</time>
      </trkpt>
      <trkpt lat="42.610633" lon="11.243791">
       <ele>101.55</ele>
       <time>2014-11-04T19:46:08Z</time>
      </trkpt>
      <trkpt lat="42.610355" lon="11.244041">
       <ele>98.08</ele>
       <time>2014-11-04T19:46:14Z</time>
      </trkpt>
      <trkpt lat="42.609477" lon="11.244592">
       <ele>89.9</ele>
       <time>2014-11-04T19:46:34Z</time>
      </trkpt>
      <trkpt lat="42.609230" lon="11.244852">
       <ele>88.2</ele>
       <time>2014-11-04T19:46:41Z</time>
      </trkpt>
      <trkpt lat="42.608928" lon="11.245385">
       <ele>86.33</ele>
       <time>2014-11-04T19:46:51Z</time>
      </trkpt>
      <trkpt lat="42.607215" lon="11.248971">
       <ele>68.87</ele>
       <time>2014-11-04T19:47:56Z</time>
      </trkpt>
      <trkpt lat="42.606994" lon="11.249361">
       <ele>67.64</ele>
       <time>2014-11-04T19:48:04Z</time>
      </trkpt>
      <trkpt lat="42.606727" lon="11.249702">
       <ele>65.5</ele>
       <time>2014-11-04T19:48:12Z</time>
      </trkpt>
      <trkpt lat="42.605373" lon="11.251047">
       <ele>56.79</ele>
       <time>2014-11-04T19:48:46Z</time>
      </trkpt>
      <trkpt lat="42.605060" lon="11.251295">
       <ele>53.35</ele>
       <time>2014-11-04T19:48:54Z</time>
      </trkpt>
      <trkpt lat="42.603546" lon="11.252140">
       <ele>49.65</ele>
       <time>2014-11-04T19:49:28Z</time>
      </trkpt>
      <trkpt lat="42.602195" lon="11.253421">
       <ele>44.87</ele>
       <time>2014-11-04T19:50:02Z</time>
      </trkpt>
      <trkpt lat="42.601715" lon="11.253766">
       <ele>41.68</ele>
       <time>2014-11-04T19:50:13Z</time>
      </trkpt>
      <trkpt lat="42.601383" lon="11.253915">
       <ele>41.1</ele>
       <time>2014-11-04T19:50:20Z</time>
      </trkpt>
      <trkpt lat="42.600849" lon="11.253973">
       <ele>40.78</ele>
       <time>2014-11-04T19:50:32Z</time>
      </trkpt>
      <trkpt lat="42.600513" lon="11.253927">
       <ele>40.44</ele>
       <time>2014-11-04T19:50:39Z</time>
      </trkpt>
      <trkpt lat="42.599090" lon="11.253278">
       <ele>35.7</ele>
       <time>2014-11-04T19:51:10Z</time>
      </trkpt>
      <trkpt lat="42.598941" lon="11.253280">
       <ele>34.97</ele>
       <time>2014-11-04T19:51:13Z</time>
      </trkpt>
      <trkpt lat="42.598663" lon="11.253412">
       <ele>34.1</ele>
       <time>2014-11-04T19:51:19Z</time>
      </trkpt>
      <trkpt lat="42.597084" lon="11.254871">
       <ele>36.31</ele>
       <time>2014-11-04T19:51:59Z</time>
      </trkpt>
      <trkpt lat="42.596660" lon="11.255339">
       <ele>35.21</ele>
       <time>2014-11-04T19:52:10Z</time>
      </trkpt>
      <trkpt lat="42.595985" lon="11.256501">
       <ele>37.93</ele>
       <time>2014-11-04T19:52:32Z</time>
      </trkpt>
      <trkpt lat="42.595382" lon="11.257788">
       <ele>45.01</ele>
       <time>2014-11-04T19:52:56Z</time>
      </trkpt>
      <trkpt lat="42.595157" lon="11.258302">
       <ele>46.18</ele>
       <time>2014-11-04T19:53:05Z</time>
      </trkpt>
      <trkpt lat="42.595108" lon="11.258497">
       <ele>45.5</ele>
       <time>2014-11-04T19:53:08Z</time>
      </trkpt>
      <trkpt lat="42.595085" lon="11.258693">
       <ele>44.64</ele>
       <time>2014-11-04T19:53:11Z</time>
      </trkpt>
      <trkpt lat="42.595134" lon="11.259387">
       <ele>43.27</ele>
       <time>2014-11-04T19:53:22Z</time>
      </trkpt>
      <trkpt lat="42.595546" lon="11.262891">
       <ele>46.46</ele>
       <time>2014-11-04T19:54:16Z</time>
      </trkpt>
      <trkpt lat="42.595806" lon="11.264936">
       <ele>53.62</ele>
       <time>2014-11-04T19:54:47Z</time>
      </trkpt>
      <trkpt lat="42.595897" lon="11.265402">
       <ele>55.35</ele>
       <time>2014-11-04T19:54:55Z</time>
      </trkpt>
      <trkpt lat="42.596206" lon="11.266496">
       <ele>59.48</ele>
       <time>2014-11-04T19:55:13Z</time>
      </trkpt>
      <trkpt lat="42.596260" lon="11.266939">
       <ele>61.38</ele>
       <time>2014-11-04T19:55:20Z</time>
      </trkpt>
      <trkpt lat="42.596244" lon="11.267163">
       <ele>62.35</ele>
       <time>2014-11-04T19:55:23Z</time>
      </trkpt>
      <trkpt lat="42.596057" lon="11.268045">
       <ele>65.76</ele>
       <time>2014-11-04T19:55:37Z</time>
      </trkpt>
      <trkpt lat="42.596023" lon="11.268275">
       <ele>66.73</ele>
       <time>2014-11-04T19:55:41Z</time>
      </trkpt>
      <trkpt lat="42.596000" lon="11.268746">
       <ele>67.3</ele>
       <time>2014-11-04T19:55:48Z</time>
      </trkpt>
      <trkpt lat="42.596008" lon="11.268980">
       <ele>67.67</ele>
       <time>2014-11-04T19:55:51Z</time>
      </trkpt>
      <trkpt lat="42.596073" lon="11.269445">
       <ele>68.97</ele>
       <time>2014-11-04T19:55:59Z</time>
      </trkpt>
      <trkpt lat="42.596233" lon="11.270105">
       <ele>71.27</ele>
       <time>2014-11-04T19:56:09Z</time>
      </trkpt>
      <trkpt lat="42.596313" lon="11.270570">
       <ele>73.2</ele>
       <time>2014-11-04T19:56:17Z</time>
      </trkpt>
      <trkpt lat="42.596328" lon="11.271045">
       <ele>74.86</ele>
       <time>2014-11-04T19:56:24Z</time>
      </trkpt>
      <trkpt lat="42.596282" lon="11.273082">
       <ele>84.49</ele>
       <time>2014-11-04T19:56:55Z</time>
      </trkpt>
      <trkpt lat="42.596305" lon="11.273264">
       <ele>85.58</ele>
       <time>2014-11-04T19:56:58Z</time>
      </trkpt>
      <trkpt lat="42.596405" lon="11.273603">
       <ele>85.45</ele>
       <time>2014-11-04T19:57:03Z</time>
      </trkpt>
      <trkpt lat="42.596542" lon="11.273944">
       <ele>84.64</ele>
       <time>2014-11-04T19:57:09Z</time>
      </trkpt>
      <trkpt lat="42.597801" lon="11.276778">
       <ele>69.96</ele>
       <time>2014-11-04T19:58:00Z</time>
      </trkpt>
      <trkpt lat="42.597885" lon="11.277148">
       <ele>68.65</ele>
       <time>2014-11-04T19:58:06Z</time>
      </trkpt>
      <trkpt lat="42.597881" lon="11.277338">
       <ele>68.1</ele>
       <time>2014-11-04T19:58:09Z</time>
      </trkpt>
      <trkpt lat="42.597850" lon="11.277539">
       <ele>67.65</ele>
       <time>2014-11-04T19:58:12Z</time>
      </trkpt>
      <trkpt lat="42.597354" lon="11.279301">
       <ele>62.45</ele>
       <time>2014-11-04T19:58:40Z</time>
      </trkpt>
      <trkpt lat="42.597286" lon="11.279762">
       <ele>62.05</ele>
       <time>2014-11-04T19:58:48Z</time>
      </trkpt>
      <trkpt lat="42.597328" lon="11.280442">
       <ele>62.8</ele>
       <time>2014-11-04T19:58:58Z</time>
      </trkpt>
      <trkpt lat="42.597427" lon="11.281093">
       <ele>64.02</ele>
       <time>2014-11-04T19:59:08Z</time>
      </trkpt>
      <trkpt lat="42.597801" lon="11.283196">
       <ele>63.15</ele>
       <time>2014-11-04T19:59:41Z</time>
      </trkpt>
      <trkpt lat="42.597827" lon="11.283427">
       <ele>62.5</ele>
       <time>2014-11-04T19:59:45Z</time>
      </trkpt>
      <trkpt lat="42.597858" lon="11.283889">
       <ele>60.29</ele>
       <time>2014-11-04T19:59:52Z</time>
      </trkpt>
      <trkpt lat="42.597824" lon="11.286204">
       <ele>67.91</ele>
       <time>2014-11-04T20:00:27Z</time>
      </trkpt>
      <trkpt lat="42.597900" lon="11.286589">
       <ele>70.45</ele>
       <time>2014-11-04T20:00:33Z</time>
      </trkpt>
      <trkpt lat="42.598056" lon="11.286909">
       <ele>73.67</ele>
       <time>2014-11-04T20:00:39Z</time>
      </trkpt>
      <trkpt lat="42.598464" lon="11.287383">
       <ele>80.48</ele>
       <time>2014-11-04T20:00:50Z</time>
      </trkpt>
      <trkpt lat="42.598686" lon="11.287548">
       <ele>82.02</ele>
       <time>2014-11-04T20:00:56Z</time>
      </trkpt>
      <trkpt lat="42.599308" lon="11.287849">
       <ele>84.78</ele>
       <time>2014-11-04T20:01:09Z</time>
      </trkpt>
      <trkpt lat="42.599479" lon="11.288103">
       <ele>87.21</ele>
       <time>2014-11-04T20:01:14Z</time>
      </trkpt>
      <trkpt lat="42.599529" lon="11.288330">
       <ele>89.66</ele>
       <time>2014-11-04T20:01:18Z</time>
      </trkpt>
      <trkpt lat="42.600486" lon="11.289487">
       <ele>100.37</ele>
       <time>2014-11-04T20:01:45Z</time>
      </trkpt>
      <trkpt lat="42.600528" lon="11.289608">
       <ele>101.87</ele>
       <time>2014-11-04T20:01:47Z</time>
      </trkpt>
      <trkpt lat="42.600536" lon="11.289711">
       <ele>103.31</ele>
       <time>2014-11-04T20:01:48Z</time>
      </trkpt>
      <trkpt lat="42.600475" lon="11.289776">
       <ele>104.7</ele>
       <time>2014-11-04T20:01:50Z</time>
      </trkpt>
      <trkpt lat="42.599281" lon="11.290574">
       <ele>116.09</ele>
       <time>2014-11-04T20:02:17Z</time>
      </trkpt>
      <trkpt lat="42.599216" lon="11.290680">
       <ele>116.77</ele>
       <time>2014-11-04T20:02:20Z</time>
      </trkpt>
      <trkpt lat="42.599193" lon="11.290798">
       <ele>117.87</ele>
       <time>2014-11-04T20:02:21Z</time>
      </trkpt>
      <trkpt lat="42.599056" lon="11.291032">
       <ele>118.05</ele>
       <time>2014-11-04T20:02:26Z</time>
      </trkpt>
      <trkpt lat="42.598888" lon="11.291249">
       <ele>117.32</ele>
       <time>2014-11-04T20:02:31Z</time>
      </trkpt>
      <trkpt lat="42.598251" lon="11.291854">
       <ele>113.49</ele>
       <time>2014-11-04T20:02:47Z</time>
      </trkpt>
      <trkpt lat="42.598091" lon="11.292098">
       <ele>114.79</ele>
       <time>2014-11-04T20:02:52Z</time>
      </trkpt>
      <trkpt lat="42.598041" lon="11.292144">
       <ele>114.8</ele>
       <time>2014-11-04T20:02:53Z</time>
      </trkpt>
      <trkpt lat="42.597953" lon="11.292181">
       <ele>114.23</ele>
       <time>2014-11-04T20:02:55Z</time>
      </trkpt>
      <trkpt lat="42.597717" lon="11.292187">
       <ele>111.47</ele>
       <time>2014-11-04T20:03:00Z</time>
      </trkpt>
      <trkpt lat="42.597484" lon="11.292120">
       <ele>108.01</ele>
       <time>2014-11-04T20:03:05Z</time>
      </trkpt>
      <trkpt lat="42.597076" lon="11.291910">
       <ele>106.5</ele>
       <time>2014-11-04T20:03:14Z</time>
      </trkpt>
      <trkpt lat="42.596687" lon="11.291845">
       <ele>107.21</ele>
       <time>2014-11-04T20:03:22Z</time>
      </trkpt>
      <trkpt lat="42.596519" lon="11.292181">
       <ele>108.49</ele>
       <time>2014-11-04T20:03:28Z</time>
      </trkpt>
      <trkpt lat="42.596206" lon="11.292056">
       <ele>105.27</ele>
       <time>2014-11-04T20:03:35Z</time>
      </trkpt>
      <trkpt lat="42.596187" lon="11.291851">
       <ele>104.07</ele>
       <time>2014-11-04T20:03:38Z</time>
      </trkpt>
      <trkpt lat="42.595901" lon="11.291486">
       <ele>101.14</ele>
       <time>2014-11-04T20:03:46Z</time>
      </trkpt>
      <trkpt lat="42.595718" lon="11.291327">
       <ele>99.71</ele>
       <time>2014-11-04T20:03:51Z</time>
      </trkpt>
      <trkpt lat="42.595523" lon="11.291040">
       <ele>97.74</ele>
       <time>2014-11-04T20:03:57Z</time>
      </trkpt>
      <trkpt lat="42.595363" lon="11.290456">
       <ele>95.91</ele>
       <time>2014-11-04T20:04:06Z</time>
      </trkpt>
      <trkpt lat="42.595268" lon="11.290243">
       <ele>95.28</ele>
       <time>2014-11-04T20:04:10Z</time>
      </trkpt>
      <trkpt lat="42.594337" lon="11.289310">
       <ele>90.06</ele>
       <time>2014-11-04T20:04:34Z</time>
      </trkpt>
      <trkpt lat="42.593200" lon="11.288926">
       <ele>87.7</ele>
       <time>2014-11-04T20:04:58Z</time>
      </trkpt>
      <trkpt lat="42.592891" lon="11.288634">
       <ele>85.83</ele>
       <time>2014-11-04T20:05:06Z</time>
      </trkpt>
      <trkpt lat="42.592483" lon="11.288538">
       <ele>84.41</ele>
       <time>2014-11-04T20:05:15Z</time>
      </trkpt>
      <trkpt lat="42.590690" lon="11.287926">
       <ele>73.08</ele>
       <time>2014-11-04T20:05:53Z</time>
      </trkpt>
      <trkpt lat="42.590221" lon="11.287881">
       <ele>69.84</ele>
       <time>2014-11-04T20:06:03Z</time>
      </trkpt>
      <trkpt lat="42.589172" lon="11.288013">
       <ele>65.64</ele>
       <time>2014-11-04T20:06:25Z</time>
      </trkpt>
      <trkpt lat="42.589157" lon="11.288390">
       <ele>65.67</ele>
       <time>2014-11-04T20:06:30Z</time>
      </trkpt>
      <trkpt lat="42.589328" lon="11.289522">
       <ele>62.31</ele>
       <time>2014-11-04T20:06:48Z</time>
      </trkpt>
      <trkpt lat="42.589420" lon="11.290448">
       <ele>61.99</ele>
       <time>2014-11-04T20:07:02Z</time>
      </trkpt>
      <trkpt lat="42.589397" lon="11.290641">
       <ele>61.87</ele>
       <time>2014-11-04T20:07:05Z</time>
      </trkpt>
      <trkpt lat="42.589290" lon="11.291103">
       <ele>60.67</ele>
       <time>2014-11-04T20:07:13Z</time>
      </trkpt>
      <trkpt lat="42.589115" lon="11.292078">
       <ele>57.77</ele>
       <time>2014-11-04T20:07:28Z</time>
      </trkpt>
      <trkpt lat="42.589080" lon="11.292407">
       <ele>56.49</ele>
       <time>2014-11-04T20:07:33Z</time>
      </trkpt>
      <trkpt lat="42.589298" lon="11.294919">
       <ele>49.68</ele>
       <time>2014-11-04T20:08:12Z</time>
      </trkpt>
      <trkpt lat="42.589309" lon="11.295344">
       <ele>47.73</ele>
       <time>2014-11-04T20:08:18Z</time>
      </trkpt>
      <trkpt lat="42.589279" lon="11.295507">
       <ele>46.85</ele>
       <time>2014-11-04T20:08:21Z</time>
      </trkpt>
      <trkpt lat="42.589176" lon="11.295759">
       <ele>45.44</ele>
       <time>2014-11-04T20:08:25Z</time>
      </trkpt>
      <trkpt lat="42.589065" lon="11.295890">
       <ele>44.94</ele>
       <time>2014-11-04T20:08:28Z</time>
      </trkpt>
      <trkpt lat="42.587337" lon="11.296908">
       <ele>45.09</ele>
       <time>2014-11-04T20:09:07Z</time>
      </trkpt>
      <trkpt lat="42.587226" lon="11.297020">
       <ele>45.38</ele>
       <time>2014-11-04T20:09:10Z</time>
      </trkpt>
      <trkpt lat="42.587097" lon="11.297195">
       <ele>45.77</ele>
       <time>2014-11-04T20:09:14Z</time>
      </trkpt>
      <trkpt lat="42.586036" lon="11.299789">
       <ele>61.81</ele>
       <time>2014-11-04T20:09:59Z</time>
      </trkpt>
      <trkpt lat="42.585697" lon="11.300583">
       <ele>62.37</ele>
       <time>2014-11-04T20:10:13Z</time>
      </trkpt>
      <trkpt lat="42.584320" lon="11.304162">
       <ele>59.99</ele>
       <time>2014-11-04T20:11:15Z</time>
      </trkpt>
      <trkpt lat="42.583766" lon="11.305603">
       <ele>63.34</ele>
       <time>2014-11-04T20:11:40Z</time>
      </trkpt>
      <trkpt lat="42.583545" lon="11.306133">
       <ele>63.96</ele>
       <time>2014-11-04T20:11:49Z</time>
      </trkpt>
      <trkpt lat="42.583435" lon="11.306532">
       <ele>64.18</ele>
       <time>2014-11-04T20:11:56Z</time>
      </trkpt>
      <trkpt lat="42.583427" lon="11.306876">
       <ele>64.4</ele>
       <time>2014-11-04T20:12:01Z</time>
      </trkpt>
      <trkpt lat="42.583507" lon="11.307433">
       <ele>65.01</ele>
       <time>2014-11-04T20:12:09Z</time>
      </trkpt>
      <trkpt lat="42.583827" lon="11.308836">
       <ele>63.24</ele>
       <time>2014-11-04T20:12:32Z</time>
      </trkpt>
      <trkpt lat="42.583866" lon="11.309148">
       <ele>62.61</ele>
       <time>2014-11-04T20:12:37Z</time>
      </trkpt>
      <trkpt lat="42.583824" lon="11.309541">
       <ele>62.3</ele>
       <time>2014-11-04T20:12:43Z</time>
      </trkpt>
      <trkpt lat="42.583438" lon="11.310479">
       <ele>65.92</ele>
       <time>2014-11-04T20:12:59Z</time>
      </trkpt>
      <trkpt lat="42.582553" lon="11.312527">
       <ele>75.97</ele>
       <time>2014-11-04T20:13:35Z</time>
      </trkpt>
      <trkpt lat="42.582405" lon="11.312956">
       <ele>77.86</ele>
       <time>2014-11-04T20:13:43Z</time>
      </trkpt>
      <trkpt lat="42.582271" lon="11.313602">
       <ele>80.15</ele>
       <time>2014-11-04T20:13:53Z</time>
      </trkpt>
      <trkpt lat="42.582195" lon="11.314519">
       <ele>82.85</ele>
       <time>2014-11-04T20:14:07Z</time>
      </trkpt>
      <trkpt lat="42.582065" lon="11.315584">
       <ele>85.77</ele>
       <time>2014-11-04T20:14:23Z</time>
      </trkpt>
      <trkpt lat="42.582038" lon="11.316069">
       <ele>87.12</ele>
       <time>2014-11-04T20:14:31Z</time>
      </trkpt>
      <trkpt lat="42.582088" lon="11.316748">
       <ele>88.49</ele>
       <time>2014-11-04T20:14:41Z</time>
      </trkpt>
      <trkpt lat="42.582145" lon="11.318286">
       <ele>85.6</ele>
       <time>2014-11-04T20:15:05Z</time>
      </trkpt>
      <trkpt lat="42.581935" lon="11.318640">
       <ele>87.02</ele>
       <time>2014-11-04T20:15:12Z</time>
      </trkpt>
      <trkpt lat="42.581069" lon="11.319438">
       <ele>86.11</ele>
       <time>2014-11-04T20:15:33Z</time>
      </trkpt>
      <trkpt lat="42.580089" lon="11.320528">
       <ele>88.51</ele>
       <time>2014-11-04T20:16:00Z</time>
      </trkpt>
      <trkpt lat="42.579051" lon="11.322382">
       <ele>85.44</ele>
       <time>2014-11-04T20:16:35Z</time>
      </trkpt>
      <trkpt lat="42.577751" lon="11.324169">
       <ele>89.01</ele>
       <time>2014-11-04T20:17:14Z</time>
      </trkpt>
      <trkpt lat="42.577194" lon="11.324907">
       <ele>92.51</ele>
       <time>2014-11-04T20:17:30Z</time>
      </trkpt>
      <trkpt lat="42.576728" lon="11.325302">
       <ele>94.06</ele>
       <time>2014-11-04T20:17:41Z</time>
      </trkpt>
      <trkpt lat="42.575519" lon="11.325980">
       <ele>97.1</ele>
       <time>2014-11-04T20:18:08Z</time>
      </trkpt>
      <trkpt lat="42.573959" lon="11.327293">
       <ele>102.44</ele>
       <time>2014-11-04T20:18:46Z</time>
      </trkpt>
      <trkpt lat="42.572940" lon="11.328306">
       <ele>101.05</ele>
       <time>2014-11-04T20:19:13Z</time>
      </trkpt>
      <trkpt lat="42.571681" lon="11.328871">
       <ele>95.14</ele>
       <time>2014-11-04T20:19:40Z</time>
      </trkpt>
      <trkpt lat="42.570468" lon="11.329222">
       <ele>94.92</ele>
       <time>2014-11-04T20:20:06Z</time>
      </trkpt>
      <trkpt lat="42.569496" lon="11.329463">
       <ele>94.07</ele>
       <time>2014-11-04T20:20:26Z</time>
      </trkpt>
      <trkpt lat="42.568546" lon="11.329585">
       <ele>92.12</ele>
       <time>2014-11-04T20:20:46Z</time>
      </trkpt>
      <trkpt lat="42.567676" lon="11.331420">
       <ele>84.44</ele>
       <time>2014-11-04T20:21:19Z</time>
      </trkpt>
      <trkpt lat="42.567523" lon="11.331609">
       <ele>84.26</ele>
       <time>2014-11-04T20:21:24Z</time>
      </trkpt>
      <trkpt lat="42.567157" lon="11.331488">
       <ele>84.13</ele>
       <time>2014-11-04T20:21:31Z</time>
      </trkpt>
      <trkpt lat="42.566463" lon="11.331008">
       <ele>86.01</ele>
       <time>2014-11-04T20:21:48Z</time>
      </trkpt>
      <trkpt lat="42.565982" lon="11.330924">
       <ele>82.44</ele>
       <time>2014-11-04T20:21:58Z</time>
      </trkpt>
      <trkpt lat="42.564331" lon="11.331439">
       <ele>73.09</ele>
       <time>2014-11-04T20:22:33Z</time>
      </trkpt>
      <trkpt lat="42.564067" lon="11.331569">
       <ele>71.29</ele>
       <time>2014-11-04T20:22:39Z</time>
      </trkpt>
      <trkpt lat="42.563762" lon="11.331722">
       <ele>69.34</ele>
       <time>2014-11-04T20:22:45Z</time>
      </trkpt>
      <trkpt lat="42.562454" lon="11.332845">
       <ele>68.66</ele>
       <time>2014-11-04T20:23:17Z</time>
      </trkpt>
      <trkpt lat="42.560684" lon="11.334432">
       <ele>61.94</ele>
       <time>2014-11-04T20:24:01Z</time>
      </trkpt>
      <trkpt lat="42.560089" lon="11.334357">
       <ele>63.01</ele>
       <time>2014-11-04T20:24:14Z</time>
      </trkpt>
      <trkpt lat="42.557407" lon="11.333583">
       <ele>51.48</ele>
       <time>2014-11-04T20:25:11Z</time>
      </trkpt>
      <trkpt lat="42.551094" lon="11.333771">
       <ele>31.84</ele>
       <time>2014-11-04T20:27:22Z</time>
      </trkpt>
      <trkpt lat="42.548526" lon="11.333765">
       <ele>25.37</ele>
       <time>2014-11-04T20:28:15Z</time>
      </trkpt>
      <trkpt lat="42.548011" lon="11.334769">
       <ele>21.84</ele>
       <time>2014-11-04T20:28:34Z</time>
      </trkpt>
      <trkpt lat="42.547588" lon="11.335284">
       <ele>20.12</ele>
       <time>2014-11-04T20:28:45Z</time>
      </trkpt>
      <trkpt lat="42.546894" lon="11.335540">
       <ele>17.64</ele>
       <time>2014-11-04T20:29:00Z</time>
      </trkpt>
      <trkpt lat="42.545799" lon="11.335824">
       <ele>18.02</ele>
       <time>2014-11-04T20:29:23Z</time>
      </trkpt>
      <trkpt lat="42.543083" lon="11.336625">
       <ele>17.27</ele>
       <time>2014-11-04T20:30:21Z</time>
      </trkpt>
      <trkpt lat="42.542709" lon="11.336823">
       <ele>17.94</ele>
       <time>2014-11-04T20:30:29Z</time>
      </trkpt>
      <trkpt lat="42.542266" lon="11.337215">
       <ele>18.28</ele>
       <time>2014-11-04T20:30:40Z</time>
      </trkpt>
      <trkpt lat="42.542041" lon="11.337525">
       <ele>18.44</ele>
       <time>2014-11-04T20:30:47Z</time>
      </trkpt>
      <trkpt lat="42.541805" lon="11.338012">
       <ele>18.06</ele>
       <time>2014-11-04T20:30:56Z</time>
      </trkpt>
      <trkpt lat="42.540523" lon="11.340929">
       <ele>22.74</ele>
       <time>2014-11-04T20:31:48Z</time>
      </trkpt>
      <trkpt lat="42.540317" lon="11.341329">
       <ele>23.24</ele>
       <time>2014-11-04T20:31:55Z</time>
      </trkpt>
      <trkpt lat="42.540164" lon="11.341430">
       <ele>23.6</ele>
       <time>2014-11-04T20:31:59Z</time>
      </trkpt>
      <trkpt lat="42.539890" lon="11.341502">
       <ele>24.32</ele>
       <time>2014-11-04T20:32:04Z</time>
      </trkpt>
      <trkpt lat="42.537250" lon="11.340573">
       <ele>31.21</ele>
       <time>2014-11-04T20:33:01Z</time>
      </trkpt>
      <trkpt lat="42.536876" lon="11.340367">
       <ele>31.73</ele>
       <time>2014-11-04T20:33:09Z</time>
      </trkpt>
      <trkpt lat="42.536533" lon="11.340008">
       <ele>31.36</ele>
       <time>2014-11-04T20:33:18Z</time>
      </trkpt>
      <trkpt lat="42.536384" lon="11.339654">
       <ele>30.85</ele>
       <time>2014-11-04T20:33:25Z</time>
      </trkpt>
      <trkpt lat="42.536342" lon="11.339468">
       <ele>30.5</ele>
       <time>2014-11-04T20:33:28Z</time>
      </trkpt>
      <trkpt lat="42.536247" lon="11.339370">
       <ele>30.49</ele>
       <time>2014-11-04T20:33:30Z</time>
      </trkpt>
      <trkpt lat="42.536170" lon="11.339350">
       <ele>30.63</ele>
       <time>2014-11-04T20:33:32Z</time>
      </trkpt>
      <trkpt lat="42.536128" lon="11.339356">
       <ele>30.75</ele>
       <time>2014-11-04T20:33:33Z</time>
      </trkpt>
      <trkpt lat="42.536052" lon="11.339398">
       <ele>31.03</ele>
       <time>2014-11-04T20:33:34Z</time>
      </trkpt>
      <trkpt lat="42.535987" lon="11.339481">
       <ele>31.38</ele>
       <time>2014-11-04T20:33:36Z</time>
      </trkpt>
      <trkpt lat="42.535953" lon="11.339614">
       <ele>31.78</ele>
       <time>2014-11-04T20:33:38Z</time>
      </trkpt>
      <trkpt lat="42.535743" lon="11.339879">
       <ele>32.76</ele>
       <time>2014-11-04T20:33:44Z</time>
      </trkpt>
      <trkpt lat="42.535491" lon="11.340021">
       <ele>33.07</ele>
       <time>2014-11-04T20:33:50Z</time>
      </trkpt>
      <trkpt lat="42.535179" lon="11.340120">
       <ele>33.32</ele>
       <time>2014-11-04T20:33:56Z</time>
      </trkpt>
      <trkpt lat="42.532905" lon="11.340144">
       <ele>35.83</ele>
       <time>2014-11-04T20:34:44Z</time>
      </trkpt>
      <trkpt lat="42.531387" lon="11.340646">
       <ele>36.14</ele>
       <time>2014-11-04T20:35:16Z</time>
      </trkpt>
      <trkpt lat="42.530879" lon="11.340663">
       <ele>35.83</ele>
       <time>2014-11-04T20:35:27Z</time>
      </trkpt>
      <trkpt lat="42.530628" lon="11.340562">
       <ele>35.59</ele>
       <time>2014-11-04T20:35:32Z</time>
      </trkpt>
      <trkpt lat="42.530090" lon="11.340346">
       <ele>35.57</ele>
       <time>2014-11-04T20:35:44Z</time>
      </trkpt>
      <trkpt lat="42.526855" lon="11.338864">
       <ele>53.29</ele>
       <time>2014-11-04T20:36:54Z</time>
      </trkpt>
      <trkpt lat="42.525901" lon="11.338559">
       <ele>51.84</ele>
       <time>2014-11-04T20:37:15Z</time>
      </trkpt>
      <trkpt lat="42.523777" lon="11.337656">
       <ele>39.53</ele>
       <time>2014-11-04T20:38:01Z</time>
      </trkpt>
      <trkpt lat="42.523502" lon="11.337409">
       <ele>37.52</ele>
       <time>2014-11-04T20:38:08Z</time>
      </trkpt>
      <trkpt lat="42.522350" lon="11.336132">
       <ele>41.84</ele>
       <time>2014-11-04T20:38:39Z</time>
      </trkpt>
      <trkpt lat="42.519763" lon="11.334670">
       <ele>37.38</ele>
       <time>2014-11-04T20:39:37Z</time>
      </trkpt>
      <trkpt lat="42.517509" lon="11.332800">
       <ele>34.03</ele>
       <time>2014-11-04T20:40:31Z</time>
      </trkpt>
      <trkpt lat="42.515163" lon="11.331206">
       <ele>29.04</ele>
       <time>2014-11-04T20:41:26Z</time>
      </trkpt>
      <trkpt lat="42.514720" lon="11.330765">
       <ele>26.11</ele>
       <time>2014-11-04T20:41:37Z</time>
      </trkpt>
      <trkpt lat="42.513778" lon="11.329517">
       <ele>22.34</ele>
       <time>2014-11-04T20:42:05Z</time>
      </trkpt>
      <trkpt lat="42.513591" lon="11.329393">
       <ele>22.12</ele>
       <time>2014-11-04T20:42:09Z</time>
      </trkpt>
      <trkpt lat="42.513385" lon="11.329367">
       <ele>21.84</ele>
       <time>2014-11-04T20:42:13Z</time>
      </trkpt>
      <trkpt lat="42.513168" lon="11.329490">
       <ele>21.17</ele>
       <time>2014-11-04T20:42:18Z</time>
      </trkpt>
      <trkpt lat="42.510639" lon="11.331759">
       <ele>21.31</ele>
       <time>2014-11-04T20:43:21Z</time>
      </trkpt>
      <trkpt lat="42.497322" lon="11.343867">
       <ele>26.77</ele>
       <time>2014-11-04T20:48:53Z</time>
      </trkpt>
      <trkpt lat="42.496719" lon="11.344737">
       <ele>29.62</ele>
       <time>2014-11-04T20:49:12Z</time>
      </trkpt>
      <trkpt lat="42.496402" lon="11.345374">
       <ele>30.59</ele>
       <time>2014-11-04T20:49:23Z</time>
      </trkpt>
      <trkpt lat="42.496265" lon="11.345934">
       <ele>28.38</ele>
       <time>2014-11-04T20:49:32Z</time>
      </trkpt>
      <trkpt lat="42.496295" lon="11.346521">
       <ele>27.16</ele>
       <time>2014-11-04T20:49:41Z</time>
      </trkpt>
      <trkpt lat="42.496154" lon="11.346851">
       <ele>24.64</ele>
       <time>2014-11-04T20:49:47Z</time>
      </trkpt>
      <trkpt lat="42.495613" lon="11.347455">
       <ele>20.84</ele>
       <time>2014-11-04T20:50:02Z</time>
      </trkpt>
      <trkpt lat="42.494346" lon="11.348349">
       <ele>20.97</ele>
       <time>2014-11-04T20:50:31Z</time>
      </trkpt>
      <trkpt lat="42.494060" lon="11.348634">
       <ele>20.99</ele>
       <time>2014-11-04T20:50:39Z</time>
      </trkpt>
      <trkpt lat="42.491165" lon="11.354581">
       <ele>23.81</ele>
       <time>2014-11-04T20:52:28Z</time>
      </trkpt>
      <trkpt lat="42.491138" lon="11.354453">
       <ele>24.1</ele>
       <time>2014-11-04T20:52:30Z</time>
      </trkpt>
      <trkpt lat="42.491165" lon="11.354581">
       <ele>23.81</ele>
       <time>2014-11-04T20:52:32Z</time>
      </trkpt>
      <trkpt lat="42.488731" lon="11.359579">
       <ele>34.3</ele>
       <time>2014-11-04T20:54:03Z</time>
      </trkpt>
      <trkpt lat="42.485897" lon="11.365508">
       <ele>30.46</ele>
       <time>2014-11-04T20:55:51Z</time>
      </trkpt>
      <trkpt lat="42.482917" lon="11.371533">
       <ele>40.34</ele>
       <time>2014-11-04T20:57:42Z</time>
      </trkpt>
      <trkpt lat="42.482475" lon="11.372680">
       <ele>45.44</ele>
       <time>2014-11-04T20:58:02Z</time>
      </trkpt>
      <trkpt lat="42.482040" lon="11.374039">
       <ele>50.03</ele>
       <time>2014-11-04T20:58:25Z</time>
      </trkpt>
      <trkpt lat="42.480659" lon="11.376411">
       <ele>56.64</ele>
       <time>2014-11-04T20:59:11Z</time>
      </trkpt>
      <trkpt lat="42.480167" lon="11.377761">
       <ele>54.39</ele>
       <time>2014-11-04T20:59:34Z</time>
      </trkpt>
      <trkpt lat="42.479167" lon="11.379879">
       <ele>47.87</ele>
       <time>2014-11-04T21:00:12Z</time>
      </trkpt>
      <trkpt lat="42.479034" lon="11.380425">
       <ele>42.18</ele>
       <time>2014-11-04T21:00:21Z</time>
      </trkpt>
      <trkpt lat="42.478946" lon="11.383343">
       <ele>40.31</ele>
       <time>2014-11-04T21:01:06Z</time>
      </trkpt>
      <trkpt lat="42.478912" lon="11.383745">
       <ele>42.13</ele>
       <time>2014-11-04T21:01:12Z</time>
      </trkpt>
      <trkpt lat="42.478855" lon="11.384044">
       <ele>43.46</ele>
       <time>2014-11-04T21:01:17Z</time>
      </trkpt>
      <trkpt lat="42.474937" lon="11.394744">
       <ele>48.4</ele>
       <time>2014-11-04T21:04:19Z</time>
      </trkpt>
      <trkpt lat="42.471771" lon="11.399530">
       <ele>55.11</ele>
       <time>2014-11-04T21:05:58Z</time>
      </trkpt>
      <trkpt lat="42.471218" lon="11.400329">
       <ele>58.33</ele>
       <time>2014-11-04T21:06:15Z</time>
      </trkpt>
      <trkpt lat="42.469875" lon="11.402359">
       <ele>63.39</ele>
       <time>2014-11-04T21:06:56Z</time>
      </trkpt>
      <trkpt lat="42.469257" lon="11.403228">
       <ele>66.49</ele>
       <time>2014-11-04T21:07:15Z</time>
      </trkpt>
      <trkpt lat="42.469234" lon="11.403306">
       <ele>66.92</ele>
       <time>2014-11-04T21:07:16Z</time>
      </trkpt>
      <trkpt lat="42.469173" lon="11.403394">
       <ele>67.22</ele>
       <time>2014-11-04T21:07:18Z</time>
      </trkpt>
      <trkpt lat="42.468292" lon="11.404313">
       <ele>67.62</ele>
       <time>2014-11-04T21:07:41Z</time>
      </trkpt>
      <trkpt lat="42.465942" lon="11.406823">
       <ele>72.94</ele>
       <time>2014-11-04T21:08:43Z</time>
      </trkpt>
      <trkpt lat="42.465103" lon="11.407734">
       <ele>82.26</ele>
       <time>2014-11-04T21:09:05Z</time>
      </trkpt>
      <trkpt lat="42.463325" lon="11.408871">
       <ele>86.29</ele>
       <time>2014-11-04T21:09:46Z</time>
      </trkpt>
      <trkpt lat="42.463115" lon="11.408834">
       <ele>84.62</ele>
       <time>2014-11-04T21:09:50Z</time>
      </trkpt>
      <trkpt lat="42.461795" lon="11.408308">
       <ele>77.15</ele>
       <time>2014-11-04T21:10:19Z</time>
      </trkpt>
      <trkpt lat="42.460975" lon="11.408041">
       <ele>72.5</ele>
       <time>2014-11-04T21:10:36Z</time>
      </trkpt>
      <trkpt lat="42.460800" lon="11.408044">
       <ele>71.19</ele>
       <time>2014-11-04T21:10:40Z</time>
      </trkpt>
      <trkpt lat="42.459083" lon="11.408768">
       <ele>73.71</ele>
       <time>2014-11-04T21:11:17Z</time>
      </trkpt>
      <trkpt lat="42.458930" lon="11.408878">
       <ele>74.55</ele>
       <time>2014-11-04T21:11:21Z</time>
      </trkpt>
      <trkpt lat="42.458824" lon="11.409025">
       <ele>75.56</ele>
       <time>2014-11-04T21:11:24Z</time>
      </trkpt>
      <trkpt lat="42.458763" lon="11.409226">
       <ele>77.13</ele>
       <time>2014-11-04T21:11:27Z</time>
      </trkpt>
      <trkpt lat="42.458751" lon="11.409400">
       <ele>79.02</ele>
       <time>2014-11-04T21:11:30Z</time>
      </trkpt>
      <trkpt lat="42.458797" lon="11.409584">
       <ele>80.84</ele>
       <time>2014-11-04T21:11:33Z</time>
      </trkpt>
      <trkpt lat="42.459156" lon="11.410279">
       <ele>86.74</ele>
       <time>2014-11-04T21:11:46Z</time>
      </trkpt>
      <trkpt lat="42.459812" lon="11.411352">
       <ele>92.86</ele>
       <time>2014-11-04T21:12:07Z</time>
      </trkpt>
      <trkpt lat="42.460048" lon="11.412056">
       <ele>96.04</ele>
       <time>2014-11-04T21:12:19Z</time>
      </trkpt>
      <trkpt lat="42.460243" lon="11.412832">
       <ele>101.58</ele>
       <time>2014-11-04T21:12:32Z</time>
      </trkpt>
      <trkpt lat="42.460628" lon="11.413782">
       <ele>105.98</ele>
       <time>2014-11-04T21:12:48Z</time>
      </trkpt>
      <trkpt lat="42.460689" lon="11.414331">
       <ele>108.06</ele>
       <time>2014-11-04T21:12:57Z</time>
      </trkpt>
      <trkpt lat="42.460704" lon="11.414688">
       <ele>107.88</ele>
       <time>2014-11-04T21:13:02Z</time>
      </trkpt>
      <trkpt lat="42.460662" lon="11.414914">
       <ele>109.05</ele>
       <time>2014-11-04T21:13:06Z</time>
      </trkpt>
      <trkpt lat="42.460517" lon="11.415147">
       <ele>112.34</ele>
       <time>2014-11-04T21:13:10Z</time>
      </trkpt>
      <trkpt lat="42.460186" lon="11.415531">
       <ele>116.15</ele>
       <time>2014-11-04T21:13:19Z</time>
      </trkpt>
      <trkpt lat="42.459480" lon="11.416212">
       <ele>122.9</ele>
       <time>2014-11-04T21:13:37Z</time>
      </trkpt>
      <trkpt lat="42.459026" lon="11.416612">
       <ele>125.56</ele>
       <time>2014-11-04T21:13:49Z</time>
      </trkpt>
      <trkpt lat="42.458835" lon="11.416810">
       <ele>127.78</ele>
       <time>2014-11-04T21:13:54Z</time>
      </trkpt>
      <trkpt lat="42.458324" lon="11.417827">
       <ele>137.65</ele>
       <time>2014-11-04T21:14:12Z</time>
      </trkpt>
      <trkpt lat="42.457382" lon="11.419377">
       <ele>147.96</ele>
       <time>2014-11-04T21:14:43Z</time>
      </trkpt>
      <trkpt lat="42.456947" lon="11.420482">
       <ele>153.53</ele>
       <time>2014-11-04T21:15:02Z</time>
      </trkpt>
      <trkpt lat="42.456573" lon="11.421375">
       <ele>155.17</ele>
       <time>2014-11-04T21:15:18Z</time>
      </trkpt>
      <trkpt lat="42.456203" lon="11.422101">
       <ele>158.25</ele>
       <time>2014-11-04T21:15:32Z</time>
      </trkpt>
      <trkpt lat="42.456089" lon="11.422360">
       <ele>156.65</ele>
       <time>2014-11-04T21:15:36Z</time>
      </trkpt>
      <trkpt lat="42.455894" lon="11.422899">
       <ele>154.2</ele>
       <time>2014-11-04T21:15:45Z</time>
      </trkpt>
      <trkpt lat="42.455730" lon="11.423137">
       <ele>154.47</ele>
       <time>2014-11-04T21:15:50Z</time>
      </trkpt>
      <trkpt lat="42.455116" lon="11.423413">
       <ele>157</ele>
       <time>2014-11-04T21:16:04Z</time>
      </trkpt>
      <trkpt lat="42.454212" lon="11.423747">
       <ele>164.35</ele>
       <time>2014-11-04T21:16:23Z</time>
      </trkpt>
      <trkpt lat="42.453826" lon="11.423789">
       <ele>165.97</ele>
       <time>2014-11-04T21:16:31Z</time>
      </trkpt>
      <trkpt lat="42.453468" lon="11.423723">
       <ele>167.47</ele>
       <time>2014-11-04T21:16:39Z</time>
      </trkpt>
      <trkpt lat="42.453437" lon="11.424028">
       <ele>167.1</ele>
       <time>2014-11-04T21:16:43Z</time>
      </trkpt>
      <trkpt lat="42.453460" lon="11.424473">
       <ele>168.6</ele>
       <time>2014-11-04T21:16:50Z</time>
      </trkpt>
      <trkpt lat="42.453445" lon="11.424861">
       <ele>170.76</ele>
       <time>2014-11-04T21:16:56Z</time>
      </trkpt>
      <trkpt lat="42.453353" lon="11.425715">
       <ele>173.7</ele>
       <time>2014-11-04T21:17:09Z</time>
      </trkpt>
      <trkpt lat="42.453357" lon="11.426427">
       <ele>176.93</ele>
       <time>2014-11-04T21:17:20Z</time>
      </trkpt>
      <trkpt lat="42.453441" lon="11.426794">
       <ele>177.78</ele>
       <time>2014-11-04T21:17:26Z</time>
      </trkpt>
      <trkpt lat="42.453582" lon="11.427062">
       <ele>177.03</ele>
       <time>2014-11-04T21:17:31Z</time>
      </trkpt>
      <trkpt lat="42.454196" lon="11.428359">
       <ele>168.81</ele>
       <time>2014-11-04T21:17:55Z</time>
      </trkpt>
      <trkpt lat="42.454406" lon="11.428736">
       <ele>166.16</ele>
       <time>2014-11-04T21:18:02Z</time>
      </trkpt>
      <trkpt lat="42.454479" lon="11.428930">
       <ele>164.77</ele>
       <time>2014-11-04T21:18:05Z</time>
      </trkpt>
      <trkpt lat="42.454681" lon="11.429902">
       <ele>163.52</ele>
       <time>2014-11-04T21:18:21Z</time>
      </trkpt>
      <trkpt lat="42.454711" lon="11.430233">
       <ele>163.73</ele>
       <time>2014-11-04T21:18:26Z</time>
      </trkpt>
      <trkpt lat="42.454742" lon="11.431180">
       <ele>164.3</ele>
       <time>2014-11-04T21:18:40Z</time>
      </trkpt>
      <trkpt lat="42.454704" lon="11.431797">
       <ele>163.12</ele>
       <time>2014-11-04T21:18:50Z</time>
      </trkpt>
      <trkpt lat="42.454833" lon="11.432894">
       <ele>156.9</ele>
       <time>2014-11-04T21:19:07Z</time>
      </trkpt>
      <trkpt lat="42.454849" lon="11.433160">
       <ele>155.85</ele>
       <time>2014-11-04T21:19:11Z</time>
      </trkpt>
      <trkpt lat="42.454788" lon="11.433447">
       <ele>154.66</ele>
       <time>2014-11-04T21:19:15Z</time>
      </trkpt>
      <trkpt lat="42.454711" lon="11.433670">
       <ele>154.3</ele>
       <time>2014-11-04T21:19:19Z</time>
      </trkpt>
      <trkpt lat="42.454486" lon="11.434066">
       <ele>154.41</ele>
       <time>2014-11-04T21:19:27Z</time>
      </trkpt>
      <trkpt lat="42.454280" lon="11.434270">
       <ele>154.94</ele>
       <time>2014-11-04T21:19:32Z</time>
      </trkpt>
      <trkpt lat="42.454063" lon="11.434412">
       <ele>155.27</ele>
       <time>2014-11-04T21:19:37Z</time>
      </trkpt>
      <trkpt lat="42.453754" lon="11.434516">
       <ele>155.67</ele>
       <time>2014-11-04T21:19:44Z</time>
      </trkpt>
      <trkpt lat="42.453239" lon="11.434593">
       <ele>156.07</ele>
       <time>2014-11-04T21:19:54Z</time>
      </trkpt>
      <trkpt lat="42.452919" lon="11.434560">
       <ele>154.11</ele>
       <time>2014-11-04T21:20:01Z</time>
      </trkpt>
      <trkpt lat="42.452644" lon="11.434597">
       <ele>152.85</ele>
       <time>2014-11-04T21:20:07Z</time>
      </trkpt>
      <trkpt lat="42.452476" lon="11.434679">
       <ele>152.2</ele>
       <time>2014-11-04T21:20:11Z</time>
      </trkpt>
      <trkpt lat="42.452243" lon="11.434922">
       <ele>150.39</ele>
       <time>2014-11-04T21:20:17Z</time>
      </trkpt>
      <trkpt lat="42.451992" lon="11.435383">
       <ele>146.38</ele>
       <time>2014-11-04T21:20:25Z</time>
      </trkpt>
      <trkpt lat="42.451793" lon="11.435847">
       <ele>142.59</ele>
       <time>2014-11-04T21:20:34Z</time>
      </trkpt>
      <trkpt lat="42.451721" lon="11.436080">
       <ele>140.22</ele>
       <time>2014-11-04T21:20:38Z</time>
      </trkpt>
      <trkpt lat="42.451786" lon="11.436341">
       <ele>139.44</ele>
       <time>2014-11-04T21:20:42Z</time>
      </trkpt>
      <trkpt lat="42.451900" lon="11.436647">
       <ele>138.93</ele>
       <time>2014-11-04T21:20:47Z</time>
      </trkpt>
      <trkpt lat="42.452064" lon="11.437470">
       <ele>135.07</ele>
       <time>2014-11-04T21:21:00Z</time>
      </trkpt>
      <trkpt lat="42.452461" lon="11.438830">
       <ele>131.71</ele>
       <time>2014-11-04T21:21:22Z</time>
      </trkpt>
      <trkpt lat="42.452568" lon="11.439294">
       <ele>131.43</ele>
       <time>2014-11-04T21:21:30Z</time>
      </trkpt>
      <trkpt lat="42.452796" lon="11.440485">
       <ele>135.82</ele>
       <time>2014-11-04T21:21:49Z</time>
      </trkpt>
      <trkpt lat="42.452930" lon="11.441520">
       <ele>138.99</ele>
       <time>2014-11-04T21:22:05Z</time>
      </trkpt>
      <trkpt lat="42.452934" lon="11.441830">
       <ele>138.2</ele>
       <time>2014-11-04T21:22:09Z</time>
      </trkpt>
      <trkpt lat="42.453094" lon="11.442619">
       <ele>134.24</ele>
       <time>2014-11-04T21:22:22Z</time>
      </trkpt>
      <trkpt lat="42.453117" lon="11.443107">
       <ele>130.67</ele>
       <time>2014-11-04T21:22:29Z</time>
      </trkpt>
      <trkpt lat="42.453037" lon="11.443693">
       <ele>125.58</ele>
       <time>2014-11-04T21:22:39Z</time>
      </trkpt>
      <trkpt lat="42.452831" lon="11.444871">
       <ele>119.87</ele>
       <time>2014-11-04T21:22:57Z</time>
      </trkpt>
      <trkpt lat="42.452857" lon="11.445253">
       <ele>118.81</ele>
       <time>2014-11-04T21:23:03Z</time>
      </trkpt>
      <trkpt lat="42.452861" lon="11.445625">
       <ele>117.51</ele>
       <time>2014-11-04T21:23:09Z</time>
      </trkpt>
      <trkpt lat="42.452743" lon="11.445892">
       <ele>115.21</ele>
       <time>2014-11-04T21:23:13Z</time>
      </trkpt>
      <trkpt lat="42.452541" lon="11.446119">
       <ele>112.25</ele>
       <time>2014-11-04T21:23:19Z</time>
      </trkpt>
      <trkpt lat="42.451866" lon="11.446725">
       <ele>106.51</ele>
       <time>2014-11-04T21:23:36Z</time>
      </trkpt>
      <trkpt lat="42.451786" lon="11.446907">
       <ele>106.15</ele>
       <time>2014-11-04T21:23:39Z</time>
      </trkpt>
      <trkpt lat="42.451759" lon="11.447093">
       <ele>106.18</ele>
       <time>2014-11-04T21:23:42Z</time>
      </trkpt>
      <trkpt lat="42.451786" lon="11.447301">
       <ele>106.62</ele>
       <time>2014-11-04T21:23:45Z</time>
      </trkpt>
      <trkpt lat="42.451866" lon="11.447489">
       <ele>107.42</ele>
       <time>2014-11-04T21:23:48Z</time>
      </trkpt>
      <trkpt lat="42.451992" lon="11.447634">
       <ele>107.8</ele>
       <time>2014-11-04T21:23:52Z</time>
      </trkpt>
      <trkpt lat="42.452381" lon="11.447804">
       <ele>109.73</ele>
       <time>2014-11-04T21:24:00Z</time>
      </trkpt>
      <trkpt lat="42.452472" lon="11.447914">
       <ele>109.83</ele>
       <time>2014-11-04T21:24:03Z</time>
      </trkpt>
      <trkpt lat="42.452529" lon="11.448101">
       <ele>109.41</ele>
       <time>2014-11-04T21:24:06Z</time>
      </trkpt>
      <trkpt lat="42.452522" lon="11.448249">
       <ele>108.62</ele>
       <time>2014-11-04T21:24:08Z</time>
      </trkpt>
      <trkpt lat="42.452342" lon="11.448776">
       <ele>107.95</ele>
       <time>2014-11-04T21:24:17Z</time>
      </trkpt>
      <trkpt lat="42.452285" lon="11.449431">
       <ele>108.31</ele>
       <time>2014-11-04T21:24:27Z</time>
      </trkpt>
      <trkpt lat="42.452320" lon="11.450079">
       <ele>110.01</ele>
       <time>2014-11-04T21:24:37Z</time>
      </trkpt>
      <trkpt lat="42.452243" lon="11.450419">
       <ele>110.9</ele>
       <time>2014-11-04T21:24:42Z</time>
      </trkpt>
      <trkpt lat="42.452098" lon="11.450901">
       <ele>112.43</ele>
       <time>2014-11-04T21:24:50Z</time>
      </trkpt>
      <trkpt lat="42.451965" lon="11.451443">
       <ele>114.7</ele>
       <time>2014-11-04T21:24:59Z</time>
      </trkpt>
      <trkpt lat="42.451869" lon="11.451951">
       <ele>115.49</ele>
       <time>2014-11-04T21:25:07Z</time>
      </trkpt>
      <trkpt lat="42.451431" lon="11.452368">
       <ele>116.85</ele>
       <time>2014-11-04T21:25:18Z</time>
      </trkpt>
      <trkpt lat="42.451114" lon="11.452711">
       <ele>117.71</ele>
       <time>2014-11-04T21:25:27Z</time>
      </trkpt>
      <trkpt lat="42.450836" lon="11.453162">
       <ele>117.01</ele>
       <time>2014-11-04T21:25:36Z</time>
      </trkpt>
      <trkpt lat="42.450077" lon="11.454261">
       <ele>117.82</ele>
       <time>2014-11-04T21:25:59Z</time>
      </trkpt>
      <trkpt lat="42.449752" lon="11.454667">
       <ele>116.72</ele>
       <time>2014-11-04T21:26:08Z</time>
      </trkpt>
      <trkpt lat="42.449306" lon="11.455147">
       <ele>114.32</ele>
       <time>2014-11-04T21:26:20Z</time>
      </trkpt>
      <trkpt lat="42.448848" lon="11.455529">
       <ele>110.93</ele>
       <time>2014-11-04T21:26:31Z</time>
      </trkpt>
      <trkpt lat="42.447780" lon="11.456233">
       <ele>101.92</ele>
       <time>2014-11-04T21:26:55Z</time>
      </trkpt>
      <trkpt lat="42.447582" lon="11.456323">
       <ele>100.62</ele>
       <time>2014-11-04T21:27:00Z</time>
      </trkpt>
      <trkpt lat="42.447322" lon="11.456391">
       <ele>99.71</ele>
       <time>2014-11-04T21:27:05Z</time>
      </trkpt>
      <trkpt lat="42.447174" lon="11.456460">
       <ele>99.46</ele>
       <time>2014-11-04T21:27:09Z</time>
      </trkpt>
      <trkpt lat="42.446853" lon="11.456793">
       <ele>99.83</ele>
       <time>2014-11-04T21:27:17Z</time>
      </trkpt>
      <trkpt lat="42.446170" lon="11.457612">
       <ele>102.46</ele>
       <time>2014-11-04T21:27:36Z</time>
      </trkpt>
      <trkpt lat="42.445659" lon="11.458294">
       <ele>101.46</ele>
       <time>2014-11-04T21:27:51Z</time>
      </trkpt>
      <trkpt lat="42.444446" lon="11.460307">
       <ele>100.34</ele>
       <time>2014-11-04T21:28:30Z</time>
      </trkpt>
      <trkpt lat="42.444145" lon="11.461050">
       <ele>98.88</ele>
       <time>2014-11-04T21:28:43Z</time>
      </trkpt>
      <trkpt lat="42.443752" lon="11.462186">
       <ele>97.26</ele>
       <time>2014-11-04T21:29:03Z</time>
      </trkpt>
      <trkpt lat="42.443538" lon="11.462532">
       <ele>97.44</ele>
       <time>2014-11-04T21:29:10Z</time>
      </trkpt>
      <trkpt lat="42.442871" lon="11.463144">
       <ele>95.29</ele>
       <time>2014-11-04T21:29:26Z</time>
      </trkpt>
      <trkpt lat="42.442363" lon="11.463497">
       <ele>95.56</ele>
       <time>2014-11-04T21:29:38Z</time>
      </trkpt>
      <trkpt lat="42.441940" lon="11.463687">
       <ele>97.05</ele>
       <time>2014-11-04T21:29:47Z</time>
      </trkpt>
      <trkpt lat="42.440628" lon="11.464132">
       <ele>102.38</ele>
       <time>2014-11-04T21:30:15Z</time>
      </trkpt>
      <trkpt lat="42.439979" lon="11.464079">
       <ele>103.86</ele>
       <time>2014-11-04T21:30:29Z</time>
      </trkpt>
      <trkpt lat="42.439022" lon="11.463956">
       <ele>105.38</ele>
       <time>2014-11-04T21:30:49Z</time>
      </trkpt>
      <trkpt lat="42.438812" lon="11.463971">
       <ele>104.56</ele>
       <time>2014-11-04T21:30:53Z</time>
      </trkpt>
      <trkpt lat="42.438522" lon="11.464053">
       <ele>103.57</ele>
       <time>2014-11-04T21:30:59Z</time>
      </trkpt>
      <trkpt lat="42.438201" lon="11.464261">
       <ele>102.98</ele>
       <time>2014-11-04T21:31:07Z</time>
      </trkpt>
      <trkpt lat="42.437862" lon="11.464445">
       <ele>102.64</ele>
       <time>2014-11-04T21:31:14Z</time>
      </trkpt>
      <trkpt lat="42.437255" lon="11.464925">
       <ele>100.95</ele>
       <time>2014-11-04T21:31:29Z</time>
      </trkpt>
      <trkpt lat="42.436908" lon="11.465313">
       <ele>99.65</ele>
       <time>2014-11-04T21:31:38Z</time>
      </trkpt>
      <trkpt lat="42.436679" lon="11.465805">
       <ele>100.91</ele>
       <time>2014-11-04T21:31:47Z</time>
      </trkpt>
      <trkpt lat="42.436420" lon="11.466266">
       <ele>99.15</ele>
       <time>2014-11-04T21:31:56Z</time>
      </trkpt>
      <trkpt lat="42.435874" lon="11.468280">
       <ele>99.01</ele>
       <time>2014-11-04T21:32:29Z</time>
      </trkpt>
      <trkpt lat="42.435840" lon="11.468517">
       <ele>99.05</ele>
       <time>2014-11-04T21:32:32Z</time>
      </trkpt>
      <trkpt lat="42.435836" lon="11.468682">
       <ele>99.02</ele>
       <time>2014-11-04T21:32:35Z</time>
      </trkpt>
      <trkpt lat="42.435920" lon="11.468909">
       <ele>99.67</ele>
       <time>2014-11-04T21:32:39Z</time>
      </trkpt>
      <trkpt lat="42.436027" lon="11.469058">
       <ele>100.57</ele>
       <time>2014-11-04T21:32:42Z</time>
      </trkpt>
      <trkpt lat="42.436096" lon="11.469327">
       <ele>100.74</ele>
       <time>2014-11-04T21:32:46Z</time>
      </trkpt>
      <trkpt lat="42.436016" lon="11.469863">
       <ele>98.11</ele>
       <time>2014-11-04T21:32:55Z</time>
      </trkpt>
      <trkpt lat="42.436096" lon="11.470342">
       <ele>98.5</ele>
       <time>2014-11-04T21:33:02Z</time>
      </trkpt>
      <trkpt lat="42.436340" lon="11.471392">
       <ele>98.15</ele>
       <time>2014-11-04T21:33:19Z</time>
      </trkpt>
      <trkpt lat="42.436550" lon="11.472168">
       <ele>96.4</ele>
       <time>2014-11-04T21:33:32Z</time>
      </trkpt>
      <trkpt lat="42.436698" lon="11.472620">
       <ele>95.83</ele>
       <time>2014-11-04T21:33:39Z</time>
      </trkpt>
      <trkpt lat="42.436771" lon="11.472942">
       <ele>95.17</ele>
       <time>2014-11-04T21:33:44Z</time>
      </trkpt>
      <trkpt lat="42.436779" lon="11.473126">
       <ele>94.23</ele>
       <time>2014-11-04T21:33:47Z</time>
      </trkpt>
      <trkpt lat="42.436737" lon="11.473397">
       <ele>92.16</ele>
       <time>2014-11-04T21:33:52Z</time>
      </trkpt>
      <trkpt lat="42.436637" lon="11.473653">
       <ele>90.24</ele>
       <time>2014-11-04T21:33:56Z</time>
      </trkpt>
      <trkpt lat="42.436504" lon="11.474124">
       <ele>87.37</ele>
       <time>2014-11-04T21:34:04Z</time>
      </trkpt>
      <trkpt lat="42.436477" lon="11.474370">
       <ele>86.13</ele>
       <time>2014-11-04T21:34:08Z</time>
      </trkpt>
      <trkpt lat="42.436508" lon="11.474575">
       <ele>85.84</ele>
       <time>2014-11-04T21:34:11Z</time>
      </trkpt>
      <trkpt lat="42.436626" lon="11.474945">
       <ele>85.81</ele>
       <time>2014-11-04T21:34:17Z</time>
      </trkpt>
      <trkpt lat="42.437107" lon="11.475770">
       <ele>82.25</ele>
       <time>2014-11-04T21:34:33Z</time>
      </trkpt>
      <trkpt lat="42.437438" lon="11.476205">
       <ele>81.44</ele>
       <time>2014-11-04T21:34:43Z</time>
      </trkpt>
      <trkpt lat="42.437484" lon="11.476301">
       <ele>81.11</ele>
       <time>2014-11-04T21:34:44Z</time>
      </trkpt>
      <trkpt lat="42.437877" lon="11.476332">
       <ele>79.93</ele>
       <time>2014-11-04T21:34:52Z</time>
      </trkpt>
      <trkpt lat="42.439079" lon="11.476951">
       <ele>68.37</ele>
       <time>2014-11-04T21:35:19Z</time>
      </trkpt>
      <trkpt lat="42.439682" lon="11.477606">
       <ele>65.27</ele>
       <time>2014-11-04T21:35:35Z</time>
      </trkpt>
      <trkpt lat="42.439792" lon="11.477705">
       <ele>65.63</ele>
       <time>2014-11-04T21:35:38Z</time>
      </trkpt>
      <trkpt lat="42.440292" lon="11.479454">
       <ele>68.85</ele>
       <time>2014-11-04T21:36:07Z</time>
      </trkpt>
      <trkpt lat="42.440132" lon="11.479809">
       <ele>70.36</ele>
       <time>2014-11-04T21:36:13Z</time>
      </trkpt>
      <trkpt lat="42.439777" lon="11.480401">
       <ele>69.37</ele>
       <time>2014-11-04T21:36:25Z</time>
      </trkpt>
      <trkpt lat="42.439632" lon="11.480723">
       <ele>68</ele>
       <time>2014-11-04T21:36:30Z</time>
      </trkpt>
      <trkpt lat="42.439266" lon="11.482731">
       <ele>68.75</ele>
       <time>2014-11-04T21:37:02Z</time>
      </trkpt>
      <trkpt lat="42.438953" lon="11.483345">
       <ele>66.67</ele>
       <time>2014-11-04T21:37:13Z</time>
      </trkpt>
      <trkpt lat="42.438819" lon="11.483742">
       <ele>64.25</ele>
       <time>2014-11-04T21:37:20Z</time>
      </trkpt>
      <trkpt lat="42.438888" lon="11.484356">
       <ele>62.62</ele>
       <time>2014-11-04T21:37:30Z</time>
      </trkpt>
      <trkpt lat="42.438922" lon="11.485089">
       <ele>61.86</ele>
       <time>2014-11-04T21:37:41Z</time>
      </trkpt>
      <trkpt lat="42.438869" lon="11.485375">
       <ele>62.57</ele>
       <time>2014-11-04T21:37:45Z</time>
      </trkpt>
      <trkpt lat="42.438613" lon="11.486028">
       <ele>63.46</ele>
       <time>2014-11-04T21:37:57Z</time>
      </trkpt>
      <trkpt lat="42.438262" lon="11.487023">
       <ele>63.72</ele>
       <time>2014-11-04T21:38:14Z</time>
      </trkpt>
      <trkpt lat="42.438270" lon="11.487537">
       <ele>63.81</ele>
       <time>2014-11-04T21:38:21Z</time>
      </trkpt>
      <trkpt lat="42.438549" lon="11.488039">
       <ele>62.59</ele>
       <time>2014-11-04T21:38:31Z</time>
      </trkpt>
      <trkpt lat="42.438987" lon="11.488572">
       <ele>60.86</ele>
       <time>2014-11-04T21:38:43Z</time>
      </trkpt>
      <trkpt lat="42.439186" lon="11.488922">
       <ele>59.9</ele>
       <time>2014-11-04T21:38:50Z</time>
      </trkpt>
      <trkpt lat="42.439239" lon="11.489145">
       <ele>59.16</ele>
       <time>2014-11-04T21:38:54Z</time>
      </trkpt>
      <trkpt lat="42.439182" lon="11.489437">
       <ele>58.71</ele>
       <time>2014-11-04T21:38:58Z</time>
      </trkpt>
      <trkpt lat="42.438346" lon="11.491182">
       <ele>56.49</ele>
       <time>2014-11-04T21:39:30Z</time>
      </trkpt>
      <trkpt lat="42.438072" lon="11.491849">
       <ele>57.03</ele>
       <time>2014-11-04T21:39:42Z</time>
      </trkpt>
      <trkpt lat="42.437618" lon="11.493083">
       <ele>60.28</ele>
       <time>2014-11-04T21:40:03Z</time>
      </trkpt>
      <trkpt lat="42.437496" lon="11.493500">
       <ele>62.8</ele>
       <time>2014-11-04T21:40:10Z</time>
      </trkpt>
      <trkpt lat="42.437393" lon="11.494619">
       <ele>71.43</ele>
       <time>2014-11-04T21:40:27Z</time>
      </trkpt>
      <trkpt lat="42.437267" lon="11.495467">
       <ele>71.5</ele>
       <time>2014-11-04T21:40:40Z</time>
      </trkpt>
      <trkpt lat="42.437290" lon="11.495698">
       <ele>71.23</ele>
       <time>2014-11-04T21:40:44Z</time>
      </trkpt>
      <trkpt lat="42.437705" lon="11.496657">
       <ele>68.05</ele>
       <time>2014-11-04T21:41:01Z</time>
      </trkpt>
      <trkpt lat="42.438568" lon="11.497759">
       <ele>64.21</ele>
       <time>2014-11-04T21:41:25Z</time>
      </trkpt>
      <trkpt lat="42.438919" lon="11.498330">
       <ele>62.43</ele>
       <time>2014-11-04T21:41:37Z</time>
      </trkpt>
      <trkpt lat="42.439067" lon="11.498708">
       <ele>62.98</ele>
       <time>2014-11-04T21:41:43Z</time>
      </trkpt>
      <trkpt lat="42.439094" lon="11.499037">
       <ele>63.12</ele>
       <time>2014-11-04T21:41:48Z</time>
      </trkpt>
      <trkpt lat="42.438991" lon="11.499570">
       <ele>64.47</ele>
       <time>2014-11-04T21:41:57Z</time>
      </trkpt>
      <trkpt lat="42.438831" lon="11.500244">
       <ele>65.14</ele>
       <time>2014-11-04T21:42:08Z</time>
      </trkpt>
      <trkpt lat="42.438671" lon="11.500681">
       <ele>64.97</ele>
       <time>2014-11-04T21:42:15Z</time>
      </trkpt>
      <trkpt lat="42.438293" lon="11.501345">
       <ele>65.82</ele>
       <time>2014-11-04T21:42:28Z</time>
      </trkpt>
      <trkpt lat="42.438014" lon="11.502093">
       <ele>68.16</ele>
       <time>2014-11-04T21:42:41Z</time>
      </trkpt>
      <trkpt lat="42.436763" lon="11.505064">
       <ele>68.27</ele>
       <time>2014-11-04T21:43:33Z</time>
      </trkpt>
      <trkpt lat="42.436481" lon="11.505604">
       <ele>67.24</ele>
       <time>2014-11-04T21:43:43Z</time>
      </trkpt>
      <trkpt lat="42.435901" lon="11.506563">
       <ele>63.6</ele>
       <time>2014-11-04T21:44:02Z</time>
      </trkpt>
      <trkpt lat="42.435756" lon="11.507301">
       <ele>63.44</ele>
       <time>2014-11-04T21:44:14Z</time>
      </trkpt>
      <trkpt lat="42.435493" lon="11.508958">
       <ele>63.23</ele>
       <time>2014-11-04T21:44:40Z</time>
      </trkpt>
      <trkpt lat="42.435333" lon="11.509805">
       <ele>62.34</ele>
       <time>2014-11-04T21:44:53Z</time>
      </trkpt>
      <trkpt lat="42.434558" lon="11.511960">
       <ele>62.6</ele>
       <time>2014-11-04T21:45:30Z</time>
      </trkpt>
      <trkpt lat="42.434421" lon="11.512537">
       <ele>64.21</ele>
       <time>2014-11-04T21:45:39Z</time>
      </trkpt>
      <trkpt lat="42.434112" lon="11.513314">
       <ele>63.59</ele>
       <time>2014-11-04T21:45:53Z</time>
      </trkpt>
      <trkpt lat="42.434223" lon="11.514204">
       <ele>60.11</ele>
       <time>2014-11-04T21:46:06Z</time>
      </trkpt>
      <trkpt lat="42.434326" lon="11.514533">
       <ele>59.69</ele>
       <time>2014-11-04T21:46:12Z</time>
      </trkpt>
      <trkpt lat="42.434288" lon="11.514833">
       <ele>58.84</ele>
       <time>2014-11-04T21:46:17Z</time>
      </trkpt>
      <trkpt lat="42.434185" lon="11.515007">
       <ele>58.07</ele>
       <time>2014-11-04T21:46:20Z</time>
      </trkpt>
      <trkpt lat="42.433849" lon="11.516016">
       <ele>58.57</ele>
       <time>2014-11-04T21:46:37Z</time>
      </trkpt>
      <trkpt lat="42.433574" lon="11.516754">
       <ele>58.01</ele>
       <time>2014-11-04T21:46:50Z</time>
      </trkpt>
      <trkpt lat="42.433467" lon="11.517477">
       <ele>52.8</ele>
       <time>2014-11-04T21:47:01Z</time>
      </trkpt>
      <trkpt lat="42.433631" lon="11.518374">
       <ele>51</ele>
       <time>2014-11-04T21:47:15Z</time>
      </trkpt>
      <trkpt lat="42.433887" lon="11.519331">
       <ele>49.52</ele>
       <time>2014-11-04T21:47:31Z</time>
      </trkpt>
      <trkpt lat="42.433959" lon="11.519880">
       <ele>51.61</ele>
       <time>2014-11-04T21:47:39Z</time>
      </trkpt>
      <trkpt lat="42.433895" lon="11.520684">
       <ele>52.52</ele>
       <time>2014-11-04T21:47:51Z</time>
      </trkpt>
      <trkpt lat="42.433780" lon="11.520947">
       <ele>52.45</ele>
       <time>2014-11-04T21:47:56Z</time>
      </trkpt>
      <trkpt lat="42.433872" lon="11.521333">
       <ele>53.47</ele>
       <time>2014-11-04T21:48:02Z</time>
      </trkpt>
      <trkpt lat="42.434020" lon="11.521595">
       <ele>53.51</ele>
       <time>2014-11-04T21:48:07Z</time>
      </trkpt>
      <trkpt lat="42.434570" lon="11.521972">
       <ele>56.93</ele>
       <time>2014-11-04T21:48:20Z</time>
      </trkpt>
      <trkpt lat="42.434902" lon="11.522257">
       <ele>58.08</ele>
       <time>2014-11-04T21:48:28Z</time>
      </trkpt>
      <trkpt lat="42.434936" lon="11.522476">
       <ele>58.21</ele>
       <time>2014-11-04T21:48:32Z</time>
      </trkpt>
      <trkpt lat="42.434810" lon="11.522967">
       <ele>59.45</ele>
       <time>2014-11-04T21:48:40Z</time>
      </trkpt>
      <trkpt lat="42.434616" lon="11.523536">
       <ele>63.29</ele>
       <time>2014-11-04T21:48:49Z</time>
      </trkpt>
      <trkpt lat="42.434513" lon="11.524255">
       <ele>67.12</ele>
       <time>2014-11-04T21:49:01Z</time>
      </trkpt>
      <trkpt lat="42.434902" lon="11.524508">
       <ele>65.95</ele>
       <time>2014-11-04T21:49:09Z</time>
      </trkpt>
      <trkpt lat="42.435836" lon="11.525250">
       <ele>68</ele>
       <time>2014-11-04T21:49:32Z</time>
      </trkpt>
      <trkpt lat="42.436351" lon="11.526207">
       <ele>71.38</ele>
       <time>2014-11-04T21:49:50Z</time>
      </trkpt>
      <trkpt lat="42.437034" lon="11.528022">
       <ele>76.11</ele>
       <time>2014-11-04T21:50:21Z</time>
      </trkpt>
      <trkpt lat="42.437274" lon="11.528811">
       <ele>77.76</ele>
       <time>2014-11-04T21:50:34Z</time>
      </trkpt>
      <trkpt lat="42.437767" lon="11.530628">
       <ele>71.79</ele>
       <time>2014-11-04T21:51:04Z</time>
      </trkpt>
      <trkpt lat="42.438076" lon="11.531331">
       <ele>72.58</ele>
       <time>2014-11-04T21:51:16Z</time>
      </trkpt>
      <trkpt lat="42.438461" lon="11.532089">
       <ele>74.97</ele>
       <time>2014-11-04T21:51:31Z</time>
      </trkpt>
      <trkpt lat="42.438514" lon="11.532436">
       <ele>75.95</ele>
       <time>2014-11-04T21:51:36Z</time>
      </trkpt>
      <trkpt lat="42.438468" lon="11.533128">
       <ele>73.68</ele>
       <time>2014-11-04T21:51:47Z</time>
      </trkpt>
      <trkpt lat="42.438652" lon="11.534050">
       <ele>69.99</ele>
       <time>2014-11-04T21:52:01Z</time>
      </trkpt>
      <trkpt lat="42.439327" lon="11.535943">
       <ele>66.29</ele>
       <time>2014-11-04T21:52:33Z</time>
      </trkpt>
      <trkpt lat="42.439712" lon="11.536972">
       <ele>65.93</ele>
       <time>2014-11-04T21:52:51Z</time>
      </trkpt>
      <trkpt lat="42.440093" lon="11.537704">
       <ele>67.85</ele>
       <time>2014-11-04T21:53:05Z</time>
      </trkpt>
      <trkpt lat="42.440986" lon="11.539668">
       <ele>71.38</ele>
       <time>2014-11-04T21:53:40Z</time>
      </trkpt>
      <trkpt lat="42.441841" lon="11.541846">
       <ele>69.83</ele>
       <time>2014-11-04T21:54:18Z</time>
      </trkpt>
      <trkpt lat="42.442161" lon="11.543519">
       <ele>69.78</ele>
       <time>2014-11-04T21:54:44Z</time>
      </trkpt>
      <trkpt lat="42.441772" lon="11.545030">
       <ele>71.21</ele>
       <time>2014-11-04T21:55:09Z</time>
      </trkpt>
      <trkpt lat="42.441738" lon="11.545740">
       <ele>70.13</ele>
       <time>2014-11-04T21:55:20Z</time>
      </trkpt>
      <trkpt lat="42.441406" lon="11.547285">
       <ele>69.44</ele>
       <time>2014-11-04T21:55:44Z</time>
      </trkpt>
      <trkpt lat="42.440322" lon="11.548862">
       <ele>69.57</ele>
       <time>2014-11-04T21:56:17Z</time>
      </trkpt>
      <trkpt lat="42.439960" lon="11.549646">
       <ele>69.48</ele>
       <time>2014-11-04T21:56:31Z</time>
      </trkpt>
      <trkpt lat="42.439498" lon="11.551952">
       <ele>68.27</ele>
       <time>2014-11-04T21:57:08Z</time>
      </trkpt>
      <trkpt lat="42.439071" lon="11.553319">
       <ele>68.98</ele>
       <time>2014-11-04T21:57:31Z</time>
      </trkpt>
      <trkpt lat="42.438636" lon="11.554436">
       <ele>70.44</ele>
       <time>2014-11-04T21:57:50Z</time>
      </trkpt>
      <trkpt lat="42.438587" lon="11.554738">
       <ele>69.86</ele>
       <time>2014-11-04T21:57:55Z</time>
      </trkpt>
      <trkpt lat="42.438568" lon="11.555142">
       <ele>68.73</ele>
       <time>2014-11-04T21:58:01Z</time>
      </trkpt>
      <trkpt lat="42.438659" lon="11.555576">
       <ele>67.19</ele>
       <time>2014-11-04T21:58:08Z</time>
      </trkpt>
      <trkpt lat="42.438774" lon="11.555885">
       <ele>66.49</ele>
       <time>2014-11-04T21:58:13Z</time>
      </trkpt>
      <trkpt lat="42.438983" lon="11.556635">
       <ele>65.23</ele>
       <time>2014-11-04T21:58:25Z</time>
      </trkpt>
      <trkpt lat="42.439144" lon="11.557469">
       <ele>63.05</ele>
       <time>2014-11-04T21:58:39Z</time>
      </trkpt>
      <trkpt lat="42.439205" lon="11.558260">
       <ele>60.32</ele>
       <time>2014-11-04T21:58:51Z</time>
      </trkpt>
      <trkpt lat="42.439014" lon="11.559272">
       <ele>56.94</ele>
       <time>2014-11-04T21:59:07Z</time>
      </trkpt>
      <trkpt lat="42.438804" lon="11.560133">
       <ele>54.29</ele>
       <time>2014-11-04T21:59:21Z</time>
      </trkpt>
      <trkpt lat="42.438770" lon="11.560630">
       <ele>54.8</ele>
       <time>2014-11-04T21:59:28Z</time>
      </trkpt>
      <trkpt lat="42.439048" lon="11.561444">
       <ele>56.03</ele>
       <time>2014-11-04T21:59:42Z</time>
      </trkpt>
      <trkpt lat="42.438819" lon="11.562188">
       <ele>59.28</ele>
       <time>2014-11-04T21:59:54Z</time>
      </trkpt>
      <trkpt lat="42.438777" lon="11.563022">
       <ele>62.88</ele>
       <time>2014-11-04T22:00:07Z</time>
      </trkpt>
      <trkpt lat="42.438785" lon="11.563582">
       <ele>64.6</ele>
       <time>2014-11-04T22:00:16Z</time>
      </trkpt>
      <trkpt lat="42.439041" lon="11.564859">
       <ele>69.83</ele>
       <time>2014-11-04T22:00:36Z</time>
      </trkpt>
      <trkpt lat="42.439483" lon="11.566340">
       <ele>80.13</ele>
       <time>2014-11-04T22:01:00Z</time>
      </trkpt>
      <trkpt lat="42.439498" lon="11.566694">
       <ele>82.46</ele>
       <time>2014-11-04T22:01:06Z</time>
      </trkpt>
      <trkpt lat="42.438652" lon="11.569567">
       <ele>88.17</ele>
       <time>2014-11-04T22:01:53Z</time>
      </trkpt>
      <trkpt lat="42.438137" lon="11.571693">
       <ele>80.56</ele>
       <time>2014-11-04T22:02:27Z</time>
      </trkpt>
      <trkpt lat="42.437805" lon="11.572584">
       <ele>70.92</ele>
       <time>2014-11-04T22:02:43Z</time>
      </trkpt>
      <trkpt lat="42.437679" lon="11.573775">
       <ele>63.72</ele>
       <time>2014-11-04T22:03:01Z</time>
      </trkpt>
      <trkpt lat="42.437480" lon="11.574333">
       <ele>62.97</ele>
       <time>2014-11-04T22:03:10Z</time>
      </trkpt>
      <trkpt lat="42.437141" lon="11.575146">
       <ele>64.38</ele>
       <time>2014-11-04T22:03:25Z</time>
      </trkpt>
      <trkpt lat="42.437393" lon="11.576639">
       <ele>72.97</ele>
       <time>2014-11-04T22:03:48Z</time>
      </trkpt>
      <trkpt lat="42.437385" lon="11.577754">
       <ele>74.42</ele>
       <time>2014-11-04T22:04:05Z</time>
      </trkpt>
      <trkpt lat="42.437084" lon="11.580695">
       <ele>76.17</ele>
       <time>2014-11-04T22:04:51Z</time>
      </trkpt>
      <trkpt lat="42.436847" lon="11.584750">
       <ele>70.3</ele>
       <time>2014-11-04T22:05:53Z</time>
      </trkpt>
      <trkpt lat="42.436767" lon="11.586874">
       <ele>71.3</ele>
       <time>2014-11-04T22:06:25Z</time>
      </trkpt>
      <trkpt lat="42.436908" lon="11.587894">
       <ele>72.64</ele>
       <time>2014-11-04T22:06:41Z</time>
      </trkpt>
      <trkpt lat="42.437156" lon="11.591057">
       <ele>77.39</ele>
       <time>2014-11-04T22:07:30Z</time>
      </trkpt>
      <trkpt lat="42.436950" lon="11.592130">
       <ele>80.4</ele>
       <time>2014-11-04T22:07:47Z</time>
      </trkpt>
      <trkpt lat="42.436386" lon="11.594675">
       <ele>88.88</ele>
       <time>2014-11-04T22:08:28Z</time>
      </trkpt>
      <trkpt lat="42.436267" lon="11.595713">
       <ele>89.08</ele>
       <time>2014-11-04T22:08:44Z</time>
      </trkpt>
      <trkpt lat="42.436283" lon="11.597215">
       <ele>85.26</ele>
       <time>2014-11-04T22:09:07Z</time>
      </trkpt>
      <trkpt lat="42.436340" lon="11.599393">
       <ele>80.22</ele>
       <time>2014-11-04T22:09:40Z</time>
      </trkpt>
      <trkpt lat="42.436363" lon="11.601359">
       <ele>82.04</ele>
       <time>2014-11-04T22:10:10Z</time>
      </trkpt>
      <trkpt lat="42.436256" lon="11.603413">
       <ele>73.13</ele>
       <time>2014-11-04T22:10:42Z</time>
      </trkpt>
      <trkpt lat="42.436260" lon="11.604232">
       <ele>69.47</ele>
       <time>2014-11-04T22:10:54Z</time>
      </trkpt>
      <trkpt lat="42.436305" lon="11.604774">
       <ele>69.15</ele>
       <time>2014-11-04T22:11:03Z</time>
      </trkpt>
      <trkpt lat="42.436305" lon="11.605113">
       <ele>69.43</ele>
       <time>2014-11-04T22:11:08Z</time>
      </trkpt>
      <trkpt lat="42.436309" lon="11.607871">
       <ele>77.11</ele>
       <time>2014-11-04T22:11:50Z</time>
      </trkpt>
      <trkpt lat="42.436336" lon="11.608331">
       <ele>78.2</ele>
       <time>2014-11-04T22:11:57Z</time>
      </trkpt>
      <trkpt lat="42.436416" lon="11.610783">
       <ele>88.76</ele>
       <time>2014-11-04T22:12:35Z</time>
      </trkpt>
      <trkpt lat="42.436347" lon="11.612754">
       <ele>87.43</ele>
       <time>2014-11-04T22:13:05Z</time>
      </trkpt>
      <trkpt lat="42.436874" lon="11.612336">
       <ele>88.9</ele>
       <time>2014-11-04T22:13:17Z</time>
      </trkpt>
      <trkpt lat="42.436347" lon="11.612754">
       <ele>87.43</ele>
       <time>2014-11-04T22:13:30Z</time>
      </trkpt>
      <trkpt lat="42.432899" lon="11.616065">
       <ele>77.7</ele>
       <time>2014-11-04T22:14:58Z</time>
      </trkpt>
      <trkpt lat="42.432720" lon="11.616265">
       <ele>77.43</ele>
       <time>2014-11-04T22:15:03Z</time>
      </trkpt>
      <trkpt lat="42.432605" lon="11.616452">
       <ele>77.2</ele>
       <time>2014-11-04T22:15:06Z</time>
      </trkpt>
      <trkpt lat="42.432518" lon="11.616662">
       <ele>76.95</ele>
       <time>2014-11-04T22:15:10Z</time>
      </trkpt>
      <trkpt lat="42.432456" lon="11.616709">
       <ele>76.8</ele>
       <time>2014-11-04T22:15:11Z</time>
      </trkpt>
      <trkpt lat="42.432327" lon="11.616709">
       <ele>76.34</ele>
       <time>2014-11-04T22:15:14Z</time>
      </trkpt>
      <trkpt lat="42.430492" lon="11.615147">
       <ele>78.03</ele>
       <time>2014-11-04T22:15:59Z</time>
      </trkpt>
      <trkpt lat="42.430381" lon="11.615095">
       <ele>78.13</ele>
       <time>2014-11-04T22:16:01Z</time>
      </trkpt>
      <trkpt lat="42.430263" lon="11.615098">
       <ele>78.01</ele>
       <time>2014-11-04T22:16:04Z</time>
      </trkpt>
      <trkpt lat="42.428161" lon="11.615879">
       <ele>83.74</ele>
       <time>2014-11-04T22:16:49Z</time>
      </trkpt>
      <trkpt lat="42.426380" lon="11.616189">
       <ele>80.98</ele>
       <time>2014-11-04T22:17:26Z</time>
      </trkpt>
      <trkpt lat="42.425300" lon="11.616355">
       <ele>77.14</ele>
       <time>2014-11-04T22:17:49Z</time>
      </trkpt>
      <trkpt lat="42.424930" lon="11.616394">
       <ele>76.16</ele>
       <time>2014-11-04T22:17:57Z</time>
      </trkpt>
      <trkpt lat="42.422756" lon="11.615996">
       <ele>73.78</ele>
       <time>2014-11-04T22:18:42Z</time>
      </trkpt>
      <trkpt lat="42.422527" lon="11.615919">
       <ele>72.61</ele>
       <time>2014-11-04T22:18:47Z</time>
      </trkpt>
      <trkpt lat="42.422088" lon="11.615736">
       <ele>72.96</ele>
       <time>2014-11-04T22:18:56Z</time>
      </trkpt>
      <trkpt lat="42.420627" lon="11.615040">
       <ele>72.07</ele>
       <time>2014-11-04T22:19:29Z</time>
      </trkpt>
      <trkpt lat="42.419811" lon="11.614582">
       <ele>68.32</ele>
       <time>2014-11-04T22:19:47Z</time>
      </trkpt>
      <trkpt lat="42.417358" lon="11.613095">
       <ele>65.54</ele>
       <time>2014-11-04T22:20:43Z</time>
      </trkpt>
      <trkpt lat="42.417106" lon="11.613018">
       <ele>64.76</ele>
       <time>2014-11-04T22:20:48Z</time>
      </trkpt>
      <trkpt lat="42.413116" lon="11.612509">
       <ele>67.52</ele>
       <time>2014-11-04T22:22:11Z</time>
      </trkpt>
      <trkpt lat="42.412834" lon="11.612436">
       <ele>68.38</ele>
       <time>2014-11-04T22:22:17Z</time>
      </trkpt>
      <trkpt lat="42.412338" lon="11.612212">
       <ele>69.88</ele>
       <time>2014-11-04T22:22:28Z</time>
      </trkpt>
      <trkpt lat="42.412158" lon="11.612150">
       <ele>70.14</ele>
       <time>2014-11-04T22:22:32Z</time>
      </trkpt>
      <trkpt lat="42.411911" lon="11.612119">
       <ele>70.36</ele>
       <time>2014-11-04T22:22:37Z</time>
      </trkpt>
      <trkpt lat="42.411605" lon="11.612121">
       <ele>70.73</ele>
       <time>2014-11-04T22:22:43Z</time>
      </trkpt>
      <trkpt lat="42.408172" lon="11.612334">
       <ele>72.76</ele>
       <time>2014-11-04T22:23:54Z</time>
      </trkpt>
      <trkpt lat="42.407035" lon="11.612433">
       <ele>71.77</ele>
       <time>2014-11-04T22:24:18Z</time>
      </trkpt>
      <trkpt lat="42.406791" lon="11.612489">
       <ele>71.28</ele>
       <time>2014-11-04T22:24:23Z</time>
      </trkpt>
      <trkpt lat="42.403617" lon="11.614109">
       <ele>71.23</ele>
       <time>2014-11-04T22:25:34Z</time>
      </trkpt>
      <trkpt lat="42.399311" lon="11.616414">
       <ele>65.99</ele>
       <time>2014-11-04T22:27:10Z</time>
      </trkpt>
      <trkpt lat="42.398933" lon="11.616455">
       <ele>65.89</ele>
       <time>2014-11-04T22:27:17Z</time>
      </trkpt>
      <trkpt lat="42.398502" lon="11.616315">
       <ele>65.15</ele>
       <time>2014-11-04T22:27:27Z</time>
      </trkpt>
      <trkpt lat="42.391506" lon="11.614418">
       <ele>57.93</ele>
       <time>2014-11-04T22:29:55Z</time>
      </trkpt>
      <trkpt lat="42.389053" lon="11.613781">
       <ele>55.81</ele>
       <time>2014-11-04T22:30:46Z</time>
      </trkpt>
      <trkpt lat="42.388553" lon="11.613796">
       <ele>56.73</ele>
       <time>2014-11-04T22:30:57Z</time>
      </trkpt>
      <trkpt lat="42.384063" lon="11.613533">
       <ele>53.88</ele>
       <time>2014-11-04T22:32:30Z</time>
      </trkpt>
      <trkpt lat="42.380329" lon="11.613247">
       <ele>48.46</ele>
       <time>2014-11-04T22:33:47Z</time>
      </trkpt>
      <trkpt lat="42.380088" lon="11.613178">
       <ele>48.69</ele>
       <time>2014-11-04T22:33:53Z</time>
      </trkpt>
      <trkpt lat="42.379699" lon="11.612981">
       <ele>48.94</ele>
       <time>2014-11-04T22:34:01Z</time>
      </trkpt>
      <trkpt lat="42.379333" lon="11.612609">
       <ele>48.93</ele>
       <time>2014-11-04T22:34:11Z</time>
      </trkpt>
      <trkpt lat="42.376754" lon="11.610163">
       <ele>45.78</ele>
       <time>2014-11-04T22:35:16Z</time>
      </trkpt>
      <trkpt lat="42.376396" lon="11.609988">
       <ele>45.36</ele>
       <time>2014-11-04T22:35:24Z</time>
      </trkpt>
      <trkpt lat="42.376060" lon="11.609853">
       <ele>44.67</ele>
       <time>2014-11-04T22:35:31Z</time>
      </trkpt>
      <trkpt lat="42.375144" lon="11.609711">
       <ele>43.77</ele>
       <time>2014-11-04T22:35:50Z</time>
      </trkpt>
      <trkpt lat="42.374416" lon="11.609791">
       <ele>43.92</ele>
       <time>2014-11-04T22:36:05Z</time>
      </trkpt>
      <trkpt lat="42.374084" lon="11.609729">
       <ele>43.87</ele>
       <time>2014-11-04T22:36:12Z</time>
      </trkpt>
      <trkpt lat="42.373874" lon="11.609536">
       <ele>43.45</ele>
       <time>2014-11-04T22:36:18Z</time>
      </trkpt>
      <trkpt lat="42.365859" lon="11.600026">
       <ele>35.07</ele>
       <time>2014-11-04T22:39:59Z</time>
      </trkpt>
      <trkpt lat="42.360580" lon="11.593811">
       <ele>29.35</ele>
       <time>2014-11-04T22:42:24Z</time>
      </trkpt>
      <trkpt lat="42.360240" lon="11.593600">
       <ele>28.83</ele>
       <time>2014-11-04T22:42:31Z</time>
      </trkpt>
      <trkpt lat="42.359603" lon="11.593317">
       <ele>28.07</ele>
       <time>2014-11-04T22:42:45Z</time>
      </trkpt>
      <trkpt lat="42.358989" lon="11.593085">
       <ele>27.32</ele>
       <time>2014-11-04T22:42:58Z</time>
      </trkpt>
      <trkpt lat="42.358203" lon="11.592904">
       <ele>27.2</ele>
       <time>2014-11-04T22:43:15Z</time>
      </trkpt>
      <trkpt lat="42.357639" lon="11.592849">
       <ele>28.02</ele>
       <time>2014-11-04T22:43:27Z</time>
      </trkpt>
      <trkpt lat="42.357597" lon="11.592968">
       <ele>28.5</ele>
       <time>2014-11-04T22:43:29Z</time>
      </trkpt>
      <trkpt lat="42.357452" lon="11.593061">
       <ele>28.47</ele>
       <time>2014-11-04T22:43:32Z</time>
      </trkpt>
      <trkpt lat="42.356067" lon="11.593576">
       <ele>11.36</ele>
       <time>2014-11-04T22:44:02Z</time>
      </trkpt>
      <trkpt lat="42.355823" lon="11.593735">
       <ele>8.49</ele>
       <time>2014-11-04T22:44:07Z</time>
      </trkpt>
      <trkpt lat="42.355571" lon="11.593970">
       <ele>7.77</ele>
       <time>2014-11-04T22:44:14Z</time>
      </trkpt>
      <trkpt lat="42.355392" lon="11.594277">
       <ele>7.54</ele>
       <time>2014-11-04T22:44:20Z</time>
      </trkpt>
      <trkpt lat="42.354515" lon="11.596240">
       <ele>7.51</ele>
       <time>2014-11-04T22:44:55Z</time>
      </trkpt>
      <trkpt lat="42.353981" lon="11.597531">
       <ele>6.65</ele>
       <time>2014-11-04T22:45:18Z</time>
      </trkpt>
      <trkpt lat="42.353912" lon="11.597780">
       <ele>6.71</ele>
       <time>2014-11-04T22:45:22Z</time>
      </trkpt>
      <trkpt lat="42.353866" lon="11.597862">
       <ele>6.77</ele>
       <time>2014-11-04T22:45:23Z</time>
      </trkpt>
      <trkpt lat="42.353881" lon="11.598526">
       <ele>6.65</ele>
       <time>2014-11-04T22:45:33Z</time>
      </trkpt>
      <trkpt lat="42.353961" lon="11.600188">
       <ele>7.7</ele>
       <time>2014-11-04T22:45:59Z</time>
      </trkpt>
      <trkpt lat="42.353927" lon="11.600522">
       <ele>7.53</ele>
       <time>2014-11-04T22:46:04Z</time>
      </trkpt>
      <trkpt lat="42.353870" lon="11.600845">
       <ele>7.3</ele>
       <time>2014-11-04T22:46:09Z</time>
      </trkpt>
      <trkpt lat="42.353736" lon="11.601424">
       <ele>7.7</ele>
       <time>2014-11-04T22:46:19Z</time>
      </trkpt>
      <trkpt lat="42.353450" lon="11.602451">
       <ele>11.5</ele>
       <time>2014-11-04T22:46:35Z</time>
      </trkpt>
      <trkpt lat="42.353038" lon="11.603544">
       <ele>25.69</ele>
       <time>2014-11-04T22:46:54Z</time>
      </trkpt>
      <trkpt lat="42.352943" lon="11.603961">
       <ele>29.33</ele>
       <time>2014-11-04T22:47:01Z</time>
      </trkpt>
      <trkpt lat="42.353000" lon="11.604538">
       <ele>34.61</ele>
       <time>2014-11-04T22:47:10Z</time>
      </trkpt>
      <trkpt lat="42.352989" lon="11.604774">
       <ele>36.04</ele>
       <time>2014-11-04T22:47:13Z</time>
      </trkpt>
      <trkpt lat="42.352424" lon="11.604886">
       <ele>33.14</ele>
       <time>2014-11-04T22:47:25Z</time>
      </trkpt>
      <trkpt lat="42.352226" lon="11.604942">
       <ele>34.71</ele>
       <time>2014-11-04T22:47:29Z</time>
      </trkpt>
      <trkpt lat="42.351963" lon="11.605064">
       <ele>36.81</ele>
       <time>2014-11-04T22:47:35Z</time>
      </trkpt>
      <trkpt lat="42.351512" lon="11.605426">
       <ele>38.97</ele>
       <time>2014-11-04T22:47:46Z</time>
      </trkpt>
      <trkpt lat="42.351276" lon="11.605528">
       <ele>38.25</ele>
       <time>2014-11-04T22:47:51Z</time>
      </trkpt>
      <trkpt lat="42.351146" lon="11.605538">
       <ele>37.7</ele>
       <time>2014-11-04T22:47:54Z</time>
      </trkpt>
      <trkpt lat="42.350708" lon="11.603195">
       <ele>34.24</ele>
       <time>2014-11-04T22:48:31Z</time>
      </trkpt>
      <trkpt lat="42.350635" lon="11.603014">
       <ele>33.87</ele>
       <time>2014-11-04T22:48:34Z</time>
      </trkpt>
      <trkpt lat="42.350524" lon="11.602847">
       <ele>33.15</ele>
       <time>2014-11-04T22:48:38Z</time>
      </trkpt>
      <trkpt lat="42.350387" lon="11.602747">
       <ele>32.12</ele>
       <time>2014-11-04T22:48:41Z</time>
      </trkpt>
      <trkpt lat="42.349800" lon="11.602574">
       <ele>29</ele>
       <time>2014-11-04T22:48:53Z</time>
      </trkpt>
      <trkpt lat="42.349388" lon="11.602415">
       <ele>29</ele>
       <time>2014-11-04T22:49:02Z</time>
      </trkpt>
      <trkpt lat="42.349151" lon="11.602280">
       <ele>29.04</ele>
       <time>2014-11-04T22:49:07Z</time>
      </trkpt>
      <trkpt lat="42.348709" lon="11.601924">
       <ele>31.07</ele>
       <time>2014-11-04T22:49:18Z</time>
      </trkpt>
      <trkpt lat="42.348018" lon="11.601328">
       <ele>34.5</ele>
       <time>2014-11-04T22:49:35Z</time>
      </trkpt>
      <trkpt lat="42.347881" lon="11.601178">
       <ele>34.82</ele>
       <time>2014-11-04T22:49:39Z</time>
      </trkpt>
      <trkpt lat="42.347785" lon="11.601028">
       <ele>35.05</ele>
       <time>2014-11-04T22:49:42Z</time>
      </trkpt>
      <trkpt lat="42.347618" lon="11.600619">
       <ele>35.02</ele>
       <time>2014-11-04T22:49:49Z</time>
      </trkpt>
      <trkpt lat="42.347427" lon="11.599920">
       <ele>34.34</ele>
       <time>2014-11-04T22:50:00Z</time>
      </trkpt>
      <trkpt lat="42.347225" lon="11.598999">
       <ele>35</ele>
       <time>2014-11-04T22:50:15Z</time>
      </trkpt>
      <trkpt lat="42.347129" lon="11.598723">
       <ele>34.44</ele>
       <time>2014-11-04T22:50:20Z</time>
      </trkpt>
      <trkpt lat="42.347057" lon="11.598621">
       <ele>34.18</ele>
       <time>2014-11-04T22:50:22Z</time>
      </trkpt>
      <trkpt lat="42.346996" lon="11.598567">
       <ele>34.01</ele>
       <time>2014-11-04T22:50:23Z</time>
      </trkpt>
      <trkpt lat="42.346908" lon="11.598530">
       <ele>33.86</ele>
       <time>2014-11-04T22:50:25Z</time>
      </trkpt>
      <trkpt lat="42.346805" lon="11.598520">
       <ele>33.76</ele>
       <time>2014-11-04T22:50:27Z</time>
      </trkpt>
      <trkpt lat="42.346324" lon="11.598600">
       <ele>34.11</ele>
       <time>2014-11-04T22:50:38Z</time>
      </trkpt>
      <trkpt lat="42.346206" lon="11.598602">
       <ele>34.16</ele>
       <time>2014-11-04T22:50:40Z</time>
      </trkpt>
      <trkpt lat="42.346050" lon="11.598568">
       <ele>34.17</ele>
       <time>2014-11-04T22:50:43Z</time>
      </trkpt>
      <trkpt lat="42.345935" lon="11.598521">
       <ele>34.16</ele>
       <time>2014-11-04T22:50:46Z</time>
      </trkpt>
      <trkpt lat="42.345790" lon="11.598388">
       <ele>33.87</ele>
       <time>2014-11-04T22:50:49Z</time>
      </trkpt>
      <trkpt lat="42.345294" lon="11.597830">
       <ele>29.57</ele>
       <time>2014-11-04T22:51:03Z</time>
      </trkpt>
      <trkpt lat="42.345199" lon="11.597770">
       <ele>29.12</ele>
       <time>2014-11-04T22:51:05Z</time>
      </trkpt>
      <trkpt lat="42.345100" lon="11.597644">
       <ele>28.53</ele>
       <time>2014-11-04T22:51:08Z</time>
      </trkpt>
      <trkpt lat="42.344234" lon="11.596709">
       <ele>29.68</ele>
       <time>2014-11-04T22:51:31Z</time>
      </trkpt>
      <trkpt lat="42.342594" lon="11.595136">
       <ele>30.51</ele>
       <time>2014-11-04T22:52:12Z</time>
      </trkpt>
      <trkpt lat="42.341831" lon="11.594344">
       <ele>27.99</ele>
       <time>2014-11-04T22:52:32Z</time>
      </trkpt>
      <trkpt lat="42.340114" lon="11.593104">
       <ele>26.35</ele>
       <time>2014-11-04T22:53:13Z</time>
      </trkpt>
      <trkpt lat="42.338317" lon="11.591938">
       <ele>23.28</ele>
       <time>2014-11-04T22:53:54Z</time>
      </trkpt>
      <trkpt lat="42.337669" lon="11.591388">
       <ele>20.48</ele>
       <time>2014-11-04T22:54:10Z</time>
      </trkpt>
      <trkpt lat="42.337310" lon="11.591012">
       <ele>18.34</ele>
       <time>2014-11-04T22:54:19Z</time>
      </trkpt>
      <trkpt lat="42.336982" lon="11.590620">
       <ele>16.71</ele>
       <time>2014-11-04T22:54:28Z</time>
      </trkpt>
      <trkpt lat="42.335784" lon="11.588924">
       <ele>13.21</ele>
       <time>2014-11-04T22:55:04Z</time>
      </trkpt>
      <trkpt lat="42.335361" lon="11.588455">
       <ele>9.79</ele>
       <time>2014-11-04T22:55:16Z</time>
      </trkpt>
      <trkpt lat="42.335182" lon="11.588182">
       <ele>8.06</ele>
       <time>2014-11-04T22:55:21Z</time>
      </trkpt>
      <trkpt lat="42.334991" lon="11.587794">
       <ele>5.73</ele>
       <time>2014-11-04T22:55:28Z</time>
      </trkpt>
      <trkpt lat="42.334678" lon="11.587004">
       <ele>2.34</ele>
       <time>2014-11-04T22:55:42Z</time>
      </trkpt>
      <trkpt lat="42.334632" lon="11.586638">
       <ele>1.99</ele>
       <time>2014-11-04T22:55:48Z</time>
      </trkpt>
      <trkpt lat="42.334674" lon="11.586521">
       <ele>1.93</ele>
       <time>2014-11-04T22:55:50Z</time>
      </trkpt>
      <trkpt lat="42.334667" lon="11.586404">
       <ele>1.87</ele>
       <time>2014-11-04T22:55:52Z</time>
      </trkpt>
      <trkpt lat="42.334625" lon="11.586301">
       <ele>1.8</ele>
       <time>2014-11-04T22:55:53Z</time>
      </trkpt>
      <trkpt lat="42.334449" lon="11.586147">
       <ele>1.59</ele>
       <time>2014-11-04T22:55:58Z</time>
      </trkpt>
      <trkpt lat="42.334354" lon="11.586006">
       <ele>1.39</ele>
       <time>2014-11-04T22:56:01Z</time>
      </trkpt>
      <trkpt lat="42.333118" lon="11.582283">
       <ele>-0.12</ele>
       <time>2014-11-04T22:57:03Z</time>
      </trkpt>
      <trkpt lat="42.331661" lon="11.577820">
       <ele>0.39</ele>
       <time>2014-11-04T22:58:18Z</time>
      </trkpt>
      <trkpt lat="42.331462" lon="11.577651">
       <ele>0.27</ele>
       <time>2014-11-04T22:58:23Z</time>
      </trkpt>
      <trkpt lat="42.330844" lon="11.577309">
       <ele>0.01</ele>
       <time>2014-11-04T22:58:37Z</time>
      </trkpt>
      <trkpt lat="42.330539" lon="11.576854">
       <ele>1.29</ele>
       <time>2014-11-04T22:58:46Z</time>
      </trkpt>
      <trkpt lat="42.330303" lon="11.576692">
       <ele>1.97</ele>
       <time>2014-11-04T22:58:52Z</time>
      </trkpt>
      <trkpt lat="42.329700" lon="11.576301">
       <ele>1.81</ele>
       <time>2014-11-04T22:59:06Z</time>
      </trkpt>
      <trkpt lat="42.329151" lon="11.576104">
       <ele>0.3</ele>
       <time>2014-11-04T22:59:17Z</time>
      </trkpt>
      <trkpt lat="42.328826" lon="11.576215">
       <ele>0.68</ele>
       <time>2014-11-04T22:59:24Z</time>
      </trkpt>
      <trkpt lat="42.326946" lon="11.578928">
       <ele>2.44</ele>
       <time>2014-11-04T23:00:21Z</time>
      </trkpt>
      <trkpt lat="42.326076" lon="11.580226">
       <ele>2.15</ele>
       <time>2014-11-04T23:00:48Z</time>
      </trkpt>
    </trkseg>
  </trk>
</gpx>
